Wetterdaten: Freitag, 22.02.2019
Datum Zeit Temp. Aussen Temp. o. S. +5cm Feuchte Auss Luftdruck Regen Sonnenschein Regendauer Solar Windben Empfang
22.02.2019 00:00 9,2 C 7,8 C 7,8 C 94 % 1028,6 hPa 0,0 l/m 0 min 0 min 0 W/m 0,0 km/h (0 Bft) 95,74 %
22.02.2019 00:02 9,2 C 7,8 C 7,8 C 94 % 1028,6 hPa 0,0 l/m 0 min 0 min 0 W/m 9,7 km/h (2 Bft) 95,35 %
22.02.2019 00:04 9,2 C 7,8 C 7,8 C 94 % 1028,6 hPa 0,0 l/m 0 min 0 min 0 W/m 3,2 km/h (1 Bft) 95,74 %
22.02.2019 00:07 9,2 C 7,8 C 7,8 C 94 % 1028,8 hPa 0,0 l/m 0 min 0 min 0 W/m 3,2 km/h (1 Bft) 95,71 %
22.02.2019 00:08 9,2 C 7,8 C 7,8 C 94 % 1028,8 hPa 0,0 l/m 0 min 0 min 0 W/m 3,2 km/h (1 Bft) 91,67 %
22.02.2019 00:10 9,2 C 7,8 C 7,8 C 94 % 1028,7 hPa 0,0 l/m 0 min 0 min 0 W/m 3,2 km/h (1 Bft) 95,74 %
22.02.2019 00:12 9,2 C 7,8 C 7,8 C 94 % 1028,7 hPa 0,0 l/m 0 min 0 min 0 W/m 0,0 km/h (0 Bft) 95,74 %
22.02.2019 00:14 9,2 C 7,8 C 7,8 C 94 % 1028,7 hPa 0,0 l/m 0 min 0 min 0 W/m 3,2 km/h (1 Bft) 93,62 %
22.02.2019 00:16 9,2 C 7,8 C 7,8 C 94 % 1028,8 hPa 0,0 l/m 0 min 0 min 0 W/m 3,2 km/h (1 Bft) 95,65 %
22.02.2019 00:18 9,2 C 7,8 C 7,8 C 94 % 1028,7 hPa 0,0 l/m 0 min 0 min 0 W/m 0,0 km/h (0 Bft) 97,87 %
22.02.2019 00:20 9,2 C 7,8 C 7,8 C 94 % 1028,8 hPa 0,0 l/m 0 min 0 min 0 W/m 0,0 km/h (0 Bft) 97,87 %
22.02.2019 00:22 9,1 C 7,8 C 7,8 C 94 % 1028,7 hPa 0,0 l/m 0 min 0 min 0 W/m 3,2 km/h (1 Bft) 97,87 %
22.02.2019 00:24 9,1 C 7,8 C 7,8 C 94 % 1028,7 hPa 0,0 l/m 0 min 0 min 0 W/m 0,0 km/h (0 Bft) 93,62 %
22.02.2019 00:26 9,1 C 7,8 C 7,8 C 95 % 1028,8 hPa 0,0 l/m 0 min 2 min 0 W/m 0,0 km/h (0 Bft) 95,74 %
22.02.2019 00:28 9,1 C 7,8 C 7,8 C 95 % 1028,8 hPa 0,0 l/m 0 min 2 min 0 W/m 6,4 km/h (2 Bft) 97,83 %
22.02.2019 00:30 9,1 C 7,8 C 7,8 C 95 % 1028,8 hPa 0,0 l/m 0 min 2 min 0 W/m 0,0 km/h (0 Bft) 97,87 %
22.02.2019 00:32 9,1 C 7,8 C 7,8 C 95 % 1028,8 hPa 0,0 l/m 0 min 0 min 0 W/m 0,0 km/h (0 Bft) 97,87 %
22.02.2019 00:34 9,1 C 7,8 C 7,8 C 95 % 1028,8 hPa 0,0 l/m 0 min 2 min 0 W/m 0,0 km/h (0 Bft) 97,87 %
22.02.2019 00:36 9,1 C 7,8 C 7,8 C 95 % 1028,6 hPa 0,0 l/m 0 min 0 min 0 W/m 3,2 km/h (1 Bft) 96,55 %
22.02.2019 00:38 9,1 C 7,8 C 7,8 C 95 % 1028,7 hPa 0,0 l/m 0 min 0 min 0 W/m 6,4 km/h (2 Bft) 100,00 %
22.02.2019 00:40 9,1 C 7,8 C 7,8 C 95 % 1028,7 hPa 0,0 l/m 0 min 0 min 0 W/m 6,4 km/h (2 Bft) 97,83 %
22.02.2019 00:42 9,1 C 7,8 C 7,8 C 95 % 1028,7 hPa 0,0 l/m 0 min 0 min 0 W/m 3,2 km/h (1 Bft) 97,87 %
22.02.2019 00:44 9,1 C 7,8 C 7,8 C 95 % 1028,8 hPa 0,0 l/m 0 min 0 min 0 W/m 6,4 km/h (2 Bft) 100,00 %
22.02.2019 00:46 9,1 C 7,8 C 7,8 C 95 % 1028,7 hPa 0,0 l/m 0 min 0 min 0 W/m 3,2 km/h (1 Bft) 100,00 %
22.02.2019 00:48 9,1 C 7,8 C 7,8 C 95 % 1028,8 hPa 0,0 l/m 0 min 0 min 0 W/m 6,4 km/h (2 Bft) 97,87 %
22.02.2019 00:50 9,1 C 7,8 C 7,8 C 95 % 1028,8 hPa 0,0 l/m 0 min 2 min 0 W/m 3,2 km/h (1 Bft) 100,00 %
22.02.2019 00:52 9,1 C 7,8 C 7,8 C 95 % 1028,8 hPa 0,0 l/m 0 min 0 min 0 W/m 6,4 km/h (2 Bft) 95,65 %
22.02.2019 00:54 9,1 C 7,8 C 7,8 C 95 % 1028,8 hPa 0,0 l/m 0 min 0 min 0 W/m 3,2 km/h (1 Bft) 100,00 %
22.02.2019 00:56 9,0 C 7,8 C 7,8 C 95 % 1028,9 hPa 0,0 l/m 0 min 0 min 0 W/m 3,2 km/h (1 Bft) 100,00 %
22.02.2019 00:58 9,1 C 7,8 C 7,8 C 95 % 1028,9 hPa 0,0 l/m 0 min 0 min 0 W/m 3,2 km/h (1 Bft) 100,00 %
22.02.2019 01:00 9,0 C 7,8 C 7,8 C 95 % 1028,9 hPa 0,0 l/m 0 min 0 min 0 W/m 0,0 km/h (0 Bft) 100,00 %
22.02.2019 01:02 9,0 C 7,8 C 7,8 C 95 % 1029,0 hPa 0,0 l/m 0 min 0 min 0 W/m 0,0 km/h (0 Bft) 100,00 %
22.02.2019 01:04 9,0 C 7,8 C 7,8 C 95 % 1029,0 hPa 0,0 l/m 0 min 0 min 0 W/m 0,0 km/h (0 Bft) 100,00 %
22.02.2019 01:06 9,0 C 7,8 C 7,8 C 96 % 1029,1 hPa 0,0 l/m 0 min 0 min 0 W/m 0,0 km/h (0 Bft) 100,00 %
22.02.2019 01:08 9,0 C 7,8 C 7,8 C 96 % 1029,1 hPa 0,0 l/m 0 min 0 min 0 W/m 0,0 km/h (0 Bft) 100,00 %
22.02.2019 01:10 9,0 C 7,8 C 7,8 C 95 % 1029,1 hPa 0,0 l/m 0 min 0 min 0 W/m 0,0 km/h (0 Bft) 100,00 %
22.02.2019 01:12 9,0 C 7,8 C 7,8 C 95 % 1029,0 hPa 0,0 l/m 0 min 0 min 0 W/m 0,0 km/h (0 Bft) 97,87 %
22.02.2019 01:14 9,0 C 7,8 C 7,8 C 95 % 1029,0 hPa 0,2 l/m 0 min 0 min 0 W/m 0,0 km/h (0 Bft) 100,00 %
22.02.2019 01:16 9,0 C 7,8 C 7,8 C 95 % 1029,0 hPa 0,0 l/m 0 min 0 min 0 W/m 0,0 km/h (0 Bft) 97,87 %
22.02.2019 01:18 9,0 C 7,8 C 7,8 C 96 % 1029,0 hPa 0,0 l/m 0 min 0 min 0 W/m 0,0 km/h (0 Bft) 100,00 %
22.02.2019 01:20 9,0 C 7,8 C 7,8 C 96 % 1029,0 hPa 0,0 l/m 0 min 0 min 0 W/m 0,0 km/h (0 Bft) 100,00 %
22.02.2019 01:22 8,9 C 7,8 C 7,8 C 96 % 1029,1 hPa 0,0 l/m 0 min 0 min 0 W/m 0,0 km/h (0 Bft) 100,00 %
22.02.2019 01:24 9,0 C 7,8 C 7,8 C 96 % 1029,1 hPa 0,0 l/m 0 min 0 min 0 W/m 0,0 km/h (0 Bft) 100,00 %
22.02.2019 01:26 8,9 C 7,8 C 7,8 C 96 % 1029,1 hPa 0,0 l/m 0 min 0 min 0 W/m 0,0 km/h (0 Bft) 100,00 %
22.02.2019 01:28 8,9 C 7,8 C 7,8 C 96 % 1029,1 hPa 0,0 l/m 0 min 0 min 0 W/m 0,0 km/h (0 Bft) 100,00 %
22.02.2019 01:30 8,9 C 7,8 C 7,8 C 96 % 1029,1 hPa 0,0 l/m 0 min 0 min 0 W/m 0,0 km/h (0 Bft) 97,87 %
22.02.2019 01:32 8,9 C 7,8 C 7,8 C 96 % 1029,2 hPa 0,0 l/m 0 min 0 min 0 W/m 0,0 km/h (0 Bft) 97,87 %
22.02.2019 01:34 8,9 C 7,8 C 7,8 C 96 % 1029,2 hPa 0,0 l/m 0 min 0 min 0 W/m 0,0 km/h (0 Bft) 95,74 %
22.02.2019 01:36 8,9 C 7,8 C 7,8 C 96 % 1029,1 hPa 0,0 l/m 0 min 0 min 0 W/m 0,0 km/h (0 Bft) 96,55 %
22.02.2019 01:38 8,9 C 7,8 C 7,8 C 96 % 1029,2 hPa 0,0 l/m 0 min 0 min 0 W/m 0,0 km/h (0 Bft) 97,14 %
22.02.2019 01:40 8,9 C 7,8 C 7,8 C 96 % 1029,2 hPa 0,0 l/m 0 min 0 min 0 W/m 0,0 km/h (0 Bft) 95,74 %
22.02.2019 01:42 8,9 C 7,8 C 7,8 C 96 % 1029,2 hPa 0,0 l/m 0 min 0 min 0 W/m 0,0 km/h (0 Bft) 95,74 %
22.02.2019 01:44 8,9 C 7,8 C 7,8 C 96 % 1029,2 hPa 0,0 l/m 0 min 0 min 0 W/m 0,0 km/h (0 Bft) 97,87 %
22.02.2019 01:46 8,9 C 7,8 C 7,8 C 96 % 1029,2 hPa 0,0 l/m 0 min 0 min 0 W/m 0,0 km/h (0 Bft) 97,87 %
22.02.2019 01:48 8,9 C 7,8 C 7,8 C 96 % 1029,2 hPa 0,0 l/m 0 min 0 min 0 W/m 3,2 km/h (1 Bft) 97,87 %
22.02.2019 01:50 8,9 C 7,8 C 7,8 C 96 % 1029,2 hPa 0,0 l/m 0 min 0 min 0 W/m 3,2 km/h (1 Bft) 97,83 %
22.02.2019 01:52 8,9 C 7,8 C 7,8 C 96 % 1029,2 hPa 0,0 l/m 0 min 0 min 0 W/m 0,0 km/h (0 Bft) 97,87 %
22.02.2019 01:54 8,9 C 7,8 C 7,8 C 96 % 1029,2 hPa 0,0 l/m 0 min 0 min 0 W/m 3,2 km/h (1 Bft) 97,87 %
22.02.2019 01:56 8,9 C 7,8 C 7,8 C 96 % 1029,2 hPa 0,0 l/m 0 min 0 min 0 W/m 6,4 km/h (2 Bft) 97,87 %
22.02.2019 01:58 8,9 C 7,8 C 7,8 C 96 % 1029,2 hPa 0,0 l/m 0 min 0 min 0 W/m 3,2 km/h (1 Bft) 93,62 %
22.02.2019 02:00 8,9 C 7,8 C 7,8 C 96 % 1029,1 hPa 0,0 l/m 0 min 0 min 0 W/m 6,4 km/h (2 Bft) 97,83 %
22.02.2019 02:02 8,9 C 7,8 C 7,8 C 96 % 1029,1 hPa 0,0 l/m 0 min 0 min 0 W/m 3,2 km/h (1 Bft) 95,74 %
22.02.2019 02:04 8,9 C 7,8 C 7,8 C 96 % 1029,2 hPa 0,0 l/m 0 min 0 min 0 W/m 3,2 km/h (1 Bft) 97,87 %
22.02.2019 02:06 8,9 C 7,8 C 7,8 C 96 % 1029,2 hPa 0,0 l/m 0 min 0 min 0 W/m 3,2 km/h (1 Bft) 94,92 %
22.02.2019 02:08 8,9 C 7,8 C 7,8 C 96 % 1029,2 hPa 0,0 l/m 0 min 0 min 0 W/m 3,2 km/h (1 Bft) 97,14 %
22.02.2019 02:10 8,9 C 7,8 C 7,8 C 96 % 1029,3 hPa 0,0 l/m 0 min 0 min 0 W/m 0,0 km/h (0 Bft) 97,87 %
22.02.2019 02:12 8,9 C 7,8 C 7,8 C 96 % 1029,3 hPa 0,0 l/m 0 min 0 min 0 W/m 0,0 km/h (0 Bft) 97,83 %
22.02.2019 02:14 8,9 C 7,8 C 7,8 C 96 % 1029,3 hPa 0,0 l/m 0 min 0 min 0 W/m 3,2 km/h (1 Bft) 95,74 %
22.02.2019 02:16 8,9 C 7,8 C 7,8 C 96 % 1029,3 hPa 0,0 l/m 0 min 0 min 0 W/m 3,2 km/h (1 Bft) 93,62 %
22.02.2019 02:18 8,9 C 7,8 C 7,8 C 96 % 1029,3 hPa 0,0 l/m 0 min 0 min 0 W/m 3,2 km/h (1 Bft) 95,74 %
22.02.2019 02:20 8,9 C 7,8 C 7,8 C 97 % 1029,4 hPa 0,0 l/m 0 min 0 min 0 W/m 3,2 km/h (1 Bft) 95,74 %
22.02.2019 02:22 8,9 C 7,8 C 7,8 C 97 % 1029,4 hPa 0,0 l/m 0 min 0 min 0 W/m 3,2 km/h (1 Bft) 95,74 %
22.02.2019 02:24 8,9 C 7,8 C 7,8 C 96 % 1029,4 hPa 0,0 l/m 0 min 0 min 0 W/m 3,2 km/h (1 Bft) 95,65 %
22.02.2019 02:26 8,9 C 7,8 C 7,8 C 96 % 1029,4 hPa 0,0 l/m 0 min 0 min 0 W/m 0,0 km/h (0 Bft) 93,62 %
22.02.2019 02:28 8,9 C 7,8 C 7,8 C 96 % 1029,4 hPa 0,0 l/m 0 min 0 min 0 W/m 3,2 km/h (1 Bft) 95,74 %
22.02.2019 02:30 8,9 C 7,8 C 7,8 C 96 % 1029,4 hPa 0,0 l/m 0 min 0 min 0 W/m 6,4 km/h (2 Bft) 93,62 %
22.02.2019 02:32 8,9 C 7,8 C 7,8 C 96 % 1029,4 hPa 0,0 l/m 0 min 0 min 0 W/m 3,2 km/h (1 Bft) 95,74 %
22.02.2019 02:34 8,9 C 7,8 C 7,8 C 96 % 1029,4 hPa 0,0 l/m 0 min 0 min 0 W/m 3,2 km/h (1 Bft) 97,87 %
22.02.2019 02:36 8,9 C 7,8 C 7,8 C 96 % 1029,3 hPa 0,0 l/m 0 min 0 min 0 W/m 3,2 km/h (1 Bft) 97,83 %
22.02.2019 02:38 8,9 C 7,8 C 7,8 C 96 % 1029,3 hPa 0,0 l/m 0 min 0 min 0 W/m 3,2 km/h (1 Bft) 98,11 %
22.02.2019 02:40 8,9 C 7,8 C 7,8 C 97 % 1029,4 hPa 0,0 l/m 0 min 0 min 0 W/m 3,2 km/h (1 Bft) 93,62 %
22.02.2019 02:42 8,9 C 7,8 C 7,8 C 97 % 1029,3 hPa 0,0 l/m 0 min 0 min 0 W/m 3,2 km/h (1 Bft) 93,62 %
22.02.2019 02:44 8,9 C 7,8 C 7,8 C 97 % 1029,3 hPa 0,0 l/m 0 min 0 min 0 W/m 3,2 km/h (1 Bft) 95,74 %
22.02.2019 02:46 8,9 C 7,8 C 7,8 C 97 % 1029,4 hPa 0,0 l/m 0 min 0 min 0 W/m 3,2 km/h (1 Bft) 93,48 %
22.02.2019 02:48 8,9 C 7,8 C 7,8 C 97 % 1029,4 hPa 0,0 l/m 0 min 0 min 0 W/m 3,2 km/h (1 Bft) 95,74 %
22.02.2019 02:50 8,9 C 7,8 C 7,8 C 97 % 1029,5 hPa 0,0 l/m 0 min 0 min 0 W/m 3,2 km/h (1 Bft) 95,74 %
22.02.2019 02:52 8,8 C 7,8 C 7,8 C 97 % 1029,4 hPa 0,0 l/m 0 min 0 min 0 W/m 6,4 km/h (2 Bft) 93,62 %
22.02.2019 02:54 8,9 C 7,8 C 7,8 C 97 % 1029,5 hPa 0,0 l/m 0 min 0 min 0 W/m 6,4 km/h (2 Bft) 95,74 %
22.02.2019 02:56 8,9 C 7,8 C 7,8 C 97 % 1029,4 hPa 0,0 l/m 0 min 0 min 0 W/m 6,4 km/h (2 Bft) 93,62 %
22.02.2019 02:58 8,9 C 7,8 C 7,8 C 97 % 1029,5 hPa 0,0 l/m 0 min 0 min 0 W/m 3,2 km/h (1 Bft) 93,48 %
22.02.2019 03:00 8,9 C 7,8 C 7,8 C 97 % 1029,5 hPa 0,0 l/m 0 min 0 min 0 W/m 3,2 km/h (1 Bft) 93,62 %
22.02.2019 03:02 8,9 C 7,8 C 7,8 C 97 % 1029,6 hPa 0,0 l/m 0 min 0 min 0 W/m 3,2 km/h (1 Bft) 97,87 %
22.02.2019 03:04 8,9 C 7,8 C 7,8 C 97 % 1029,6 hPa 0,2 l/m 0 min 0 min 0 W/m 3,2 km/h (1 Bft) 95,74 %
22.02.2019 03:06 8,9 C 7,8 C 7,8 C 97 % 1029,7 hPa 0,0 l/m 0 min 0 min 0 W/m 6,4 km/h (2 Bft) 97,87 %
22.02.2019 03:08 8,9 C 7,8 C 7,8 C 97 % 1029,8 hPa 0,0 l/m 0 min 0 min 0 W/m 3,2 km/h (1 Bft) 97,92 %
22.02.2019 03:10 8,8 C 7,8 C 7,8 C 97 % 1029,7 hPa 0,0 l/m 0 min 0 min 0 W/m 0,0 km/h (0 Bft) 97,83 %
22.02.2019 03:12 8,8 C 7,8 C 7,8 C 97 % 1029,8 hPa 0,0 l/m 0 min 0 min 0 W/m 3,2 km/h (1 Bft) 97,87 %
22.02.2019 03:14 8,8 C 7,8 C 7,8 C 97 % 1029,8 hPa 0,0 l/m 0 min 0 min 0 W/m 6,4 km/h (2 Bft) 95,74 %
22.02.2019 03:16 8,8 C 7,8 C 7,8 C 97 % 1029,8 hPa 0,0 l/m 0 min 0 min 0 W/m 3,2 km/h (1 Bft) 97,87 %
22.02.2019 03:18 8,8 C 7,8 C 7,8 C 97 % 1029,8 hPa 0,0 l/m 0 min 2 min 0 W/m 9,7 km/h (2 Bft) 97,87 %
22.02.2019 03:20 8,8 C 7,8 C 7,8 C 97 % 1029,8 hPa 0,0 l/m 0 min 2 min 0 W/m 6,4 km/h (2 Bft) 97,87 %
22.02.2019 03:22 8,8 C 7,8 C 7,8 C 97 % 1029,9 hPa 0,0 l/m 0 min 0 min 0 W/m 3,2 km/h (1 Bft) 97,83 %
22.02.2019 03:24 8,8 C 7,8 C 7,8 C 97 % 1029,9 hPa 0,0 l/m 0 min 0 min 0 W/m 6,4 km/h (2 Bft) 97,87 %
22.02.2019 03:26 8,8 C 7,8 C 7,8 C 97 % 1029,9 hPa 0,0 l/m 0 min 0 min 0 W/m 0,0 km/h (0 Bft) 95,74 %
22.02.2019 03:28 8,8 C 7,8 C 7,8 C 97 % 1029,9 hPa 0,0 l/m 0 min 0 min 0 W/m 0,0 km/h (0 Bft) 100,00 %
22.02.2019 03:30 8,8 C 7,8 C 7,8 C 97 % 1029,8 hPa 0,0 l/m 0 min 0 min 0 W/m 3,2 km/h (1 Bft) 100,00 %
22.02.2019 03:32 8,8 C 7,8 C 7,2 C 97 % 1029,8 hPa 0,0 l/m 0 min 0 min 0 W/m 3,2 km/h (1 Bft) 97,87 %
22.02.2019 03:34 8,8 C 7,8 C 7,2 C 97 % 1029,9 hPa 0,0 l/m 0 min 0 min 0 W/m 3,2 km/h (1 Bft) 100,00 %
22.02.2019 03:36 8,8 C 7,8 C 7,8 C 97 % 1029,9 hPa 0,0 l/m 0 min 0 min 0 W/m 3,2 km/h (1 Bft) 100,00 %
22.02.2019 03:38 8,8 C 7,8 C 7,2 C 97 % 1029,9 hPa 0,0 l/m 0 min 0 min 0 W/m 6,4 km/h (2 Bft) 100,00 %
22.02.2019 03:40 8,8 C 7,8 C 7,2 C 97 % 1029,8 hPa 0,0 l/m 0 min 0 min 0 W/m 6,4 km/h (2 Bft) 100,00 %
22.02.2019 03:42 8,8 C 7,8 C 7,2 C 97 % 1029,8 hPa 0,2 l/m 0 min 0 min 0 W/m 6,4 km/h (2 Bft) 95,74 %
22.02.2019 03:44 8,8 C 7,8 C 7,2 C 97 % 1029,8 hPa 0,0 l/m 0 min 0 min 0 W/m 6,4 km/h (2 Bft) 100,00 %
22.02.2019 03:46 8,8 C 7,8 C 7,2 C 97 % 1029,8 hPa 0,0 l/m 0 min 0 min 0 W/m 9,7 km/h (2 Bft) 97,83 %
22.02.2019 03:48 8,8 C 7,8 C 7,2 C 97 % 1029,8 hPa 0,0 l/m 0 min 0 min 0 W/m 6,4 km/h (2 Bft) 100,00 %
22.02.2019 03:50 8,8 C 7,8 C 7,2 C 97 % 1029,8 hPa 0,0 l/m 0 min 0 min 0 W/m 6,4 km/h (2 Bft) 100,00 %
22.02.2019 03:52 8,8 C 7,8 C 7,2 C 97 % 1029,8 hPa 0,0 l/m 0 min 0 min 0 W/m 9,7 km/h (2 Bft) 100,00 %
22.02.2019 03:54 8,8 C 7,8 C 7,2 C 97 % 1029,7 hPa 0,0 l/m 0 min 0 min 0 W/m 3,2 km/h (1 Bft) 100,00 %
22.02.2019 03:56 8,8 C 7,8 C 7,2 C 97 % 1029,7 hPa 0,0 l/m 0 min 0 min 0 W/m 6,4 km/h (2 Bft) 100,00 %
22.02.2019 03:58 8,8 C 7,8 C 7,2 C 97 % 1029,8 hPa 0,0 l/m 0 min 0 min 0 W/m 3,2 km/h (1 Bft) 97,87 %
22.02.2019 04:00 8,8 C 7,8 C 7,2 C 97 % 1029,8 hPa 0,0 l/m 0 min 0 min 0 W/m 6,4 km/h (2 Bft) 97,87 %
22.02.2019 04:05 8,8 C 7,8 C 7,2 C 97 % 1029,8 hPa 0,0 l/m 0 min 0 min 0 W/m 6,4 km/h (2 Bft) 98,04 %
22.02.2019 04:06 8,8 C 7,8 C 7,2 C 97 % 1029,8 hPa 0,0 l/m 0 min 0 min 0 W/m 0,0 km/h (0 Bft) 100,00 %
22.02.2019 04:08 8,8 C 7,8 C 7,2 C 97 % 1029,7 hPa 0,0 l/m 0 min 0 min 0 W/m 3,2 km/h (1 Bft) 97,87 %
22.02.2019 04:10 8,8 C 7,8 C 7,2 C 97 % 1029,7 hPa 0,0 l/m 0 min 0 min 0 W/m 6,4 km/h (2 Bft) 97,83 %
22.02.2019 04:12 8,7 C 7,8 C 7,2 C 97 % 1029,7 hPa 0,0 l/m 0 min 0 min 0 W/m 3,2 km/h (1 Bft) 97,87 %
22.02.2019 04:14 8,8 C 7,8 C 7,2 C 97 % 1029,8 hPa 0,0 l/m 0 min 0 min 0 W/m 3,2 km/h (1 Bft) 100,00 %
22.02.2019 04:16 8,7 C 7,8 C 7,2 C 97 % 1029,8 hPa 0,0 l/m 0 min 0 min 0 W/m 3,2 km/h (1 Bft) 100,00 %
22.02.2019 04:18 8,7 C 7,8 C 7,2 C 97 % 1029,8 hPa 0,0 l/m 0 min 0 min 0 W/m 3,2 km/h (1 Bft) 100,00 %
22.02.2019 04:20 8,7 C 7,8 C 7,2 C 98 % 1029,9 hPa 0,0 l/m 0 min 0 min 0 W/m 9,7 km/h (2 Bft) 100,00 %
22.02.2019 04:22 8,7 C 7,8 C 7,2 C 98 % 1029,9 hPa 0,0 l/m 0 min 0 min 0 W/m 6,4 km/h (2 Bft) 100,00 %
22.02.2019 04:24 8,7 C 7,8 C 7,2 C 97 % 1029,9 hPa 0,0 l/m 0 min 0 min 0 W/m 6,4 km/h (2 Bft) 100,00 %
22.02.2019 04:26 8,7 C 7,8 C 7,2 C 97 % 1029,9 hPa 0,0 l/m 0 min 0 min 0 W/m 3,2 km/h (1 Bft) 100,00 %
22.02.2019 04:28 8,7 C 7,8 C 7,2 C 97 % 1029,9 hPa 0,0 l/m 0 min 0 min 0 W/m 6,4 km/h (2 Bft) 100,00 %
22.02.2019 04:30 8,7 C 7,8 C 7,2 C 97 % 1029,9 hPa 0,0 l/m 0 min 0 min 0 W/m 9,7 km/h (2 Bft) 100,00 %
22.02.2019 04:32 8,7 C 7,8 C 7,2 C 97 % 1030,0 hPa 0,0 l/m 0 min 0 min 0 W/m 9,7 km/h (2 Bft) 100,00 %
22.02.2019 04:34 8,7 C 7,8 C 7,2 C 97 % 1030,0 hPa 0,0 l/m 0 min 0 min 0 W/m 6,4 km/h (2 Bft) 100,00 %
22.02.2019 04:36 8,7 C 7,8 C 7,2 C 97 % 1030,0 hPa 0,0 l/m 0 min 0 min 0 W/m 6,4 km/h (2 Bft) 100,00 %
22.02.2019 04:38 8,7 C 7,8 C 7,2 C 97 % 1030,0 hPa 0,0 l/m 0 min 0 min 0 W/m 12,9 km/h (3 Bft) 100,00 %
22.02.2019 04:40 8,7 C 7,8 C 7,2 C 97 % 1030,0 hPa 0,0 l/m 0 min 0 min 0 W/m 9,7 km/h (2 Bft) 100,00 %
22.02.2019 04:42 8,7 C 7,8 C 7,2 C 97 % 1030,0 hPa 0,0 l/m 0 min 0 min 0 W/m 6,4 km/h (2 Bft) 100,00 %
22.02.2019 04:44 8,7 C 7,8 C 7,2 C 97 % 1030,0 hPa 0,0 l/m 0 min 0 min 0 W/m 3,2 km/h (1 Bft) 100,00 %
22.02.2019 04:46 8,7 C 7,8 C 7,2 C 97 % 1030,0 hPa 0,0 l/m 0 min 0 min 0 W/m 6,4 km/h (2 Bft) 97,87 %
22.02.2019 04:48 8,7 C 7,8 C 7,2 C 98 % 1030,0 hPa 0,0 l/m 0 min 0 min 0 W/m 6,4 km/h (2 Bft) 100,00 %
22.02.2019 04:50 8,7 C 7,8 C 7,2 C 98 % 1030,0 hPa 0,0 l/m 0 min 0 min 0 W/m 6,4 km/h (2 Bft) 100,00 %
22.02.2019 04:52 8,7 C 7,8 C 7,2 C 98 % 1030,0 hPa 0,0 l/m 0 min 0 min 0 W/m 6,4 km/h (2 Bft) 97,87 %
22.02.2019 04:54 8,7 C 7,8 C 7,2 C 98 % 1030,0 hPa 0,0 l/m 0 min 0 min 0 W/m 0,0 km/h (0 Bft) 97,83 %
22.02.2019 04:56 8,7 C 7,8 C 7,2 C 98 % 1030,0 hPa 0,0 l/m 0 min 0 min 0 W/m 3,2 km/h (1 Bft) 100,00 %
22.02.2019 04:58 8,7 C 7,8 C 7,2 C 98 % 1030,0 hPa 0,0 l/m 0 min 0 min 0 W/m 6,4 km/h (2 Bft) 100,00 %
22.02.2019 05:00 8,7 C 7,8 C 7,2 C 98 % 1030,1 hPa 0,0 l/m 0 min 0 min 0 W/m 0,0 km/h (0 Bft) 100,00 %
22.02.2019 05:02 8,7 C 7,8 C 7,2 C 98 % 1030,1 hPa 0,0 l/m 0 min 0 min 0 W/m 3,2 km/h (1 Bft) 97,87 %
22.02.2019 05:04 8,7 C 7,8 C 7,2 C 98 % 1030,1 hPa 0,0 l/m 0 min 0 min 0 W/m 3,2 km/h (1 Bft) 95,74 %
22.02.2019 05:06 8,7 C 7,8 C 7,2 C 98 % 1030,2 hPa 0,0 l/m 0 min 0 min 0 W/m 3,2 km/h (1 Bft) 95,65 %
22.02.2019 05:08 8,7 C 7,8 C 7,2 C 98 % 1030,1 hPa 0,0 l/m 0 min 0 min 0 W/m 6,4 km/h (2 Bft) 95,74 %
22.02.2019 05:10 8,7 C 7,8 C 7,2 C 98 % 1030,2 hPa 0,0 l/m 0 min 2 min 0 W/m 3,2 km/h (1 Bft) 93,62 %
22.02.2019 05:12 8,7 C 7,8 C 7,2 C 98 % 1030,2 hPa 0,0 l/m 0 min 0 min 0 W/m 6,4 km/h (2 Bft) 93,62 %
22.02.2019 05:14 8,7 C 7,8 C 7,2 C 98 % 1030,3 hPa 0,0 l/m 0 min 0 min 0 W/m 9,7 km/h (2 Bft) 95,74 %
22.02.2019 05:16 8,7 C 7,8 C 7,2 C 98 % 1030,4 hPa 0,0 l/m 0 min 0 min 0 W/m 6,4 km/h (2 Bft) 100,00 %
22.02.2019 05:18 8,7 C 7,8 C 7,2 C 98 % 1030,4 hPa 0,0 l/m 0 min 0 min 0 W/m 9,7 km/h (2 Bft) 95,65 %
22.02.2019 05:20 8,7 C 7,8 C 7,2 C 98 % 1030,4 hPa 0,0 l/m 0 min 0 min 0 W/m 6,4 km/h (2 Bft) 95,74 %
22.02.2019 05:22 8,7 C 7,8 C 7,2 C 98 % 1030,4 hPa 0,0 l/m 0 min 0 min 0 W/m 3,2 km/h (1 Bft) 93,62 %
22.02.2019 05:24 8,7 C 7,8 C 7,2 C 98 % 1030,4 hPa 0,0 l/m 0 min 0 min 0 W/m 9,7 km/h (2 Bft) 93,62 %
22.02.2019 05:26 8,7 C 7,8 C 7,2 C 98 % 1030,5 hPa 0,0 l/m 0 min 0 min 0 W/m 6,4 km/h (2 Bft) 93,62 %
22.02.2019 05:28 8,7 C 7,8 C 7,2 C 98 % 1030,4 hPa 0,0 l/m 0 min 0 min 0 W/m 12,9 km/h (3 Bft) 93,62 %
22.02.2019 05:30 8,7 C 7,8 C 7,2 C 98 % 1030,4 hPa 0,0 l/m 0 min 0 min 0 W/m 6,4 km/h (2 Bft) 93,48 %
22.02.2019 05:32 8,7 C 7,8 C 7,2 C 98 % 1030,4 hPa 0,0 l/m 0 min 0 min 0 W/m 9,7 km/h (2 Bft) 91,49 %
22.02.2019 05:34 8,7 C 7,8 C 7,2 C 98 % 1030,5 hPa 0,0 l/m 0 min 0 min 0 W/m 6,4 km/h (2 Bft) 93,02 %
22.02.2019 05:36 8,7 C 7,8 C 7,2 C 98 % 1030,4 hPa 0,0 l/m 0 min 0 min 0 W/m 12,9 km/h (3 Bft) 91,30 %
22.02.2019 05:38 8,7 C 7,8 C 7,2 C 98 % 1030,4 hPa 0,0 l/m 0 min 0 min 0 W/m 6,4 km/h (2 Bft) 91,49 %
22.02.2019 05:40 8,7 C 7,8 C 7,2 C 98 % 1030,4 hPa 0,0 l/m 0 min 0 min 0 W/m 9,7 km/h (2 Bft) 93,88 %
22.02.2019 05:42 8,7 C 7,8 C 7,2 C 98 % 1030,4 hPa 0,0 l/m 0 min 0 min 0 W/m 6,4 km/h (2 Bft) 91,49 %
22.02.2019 05:44 8,7 C 7,8 C 7,2 C 98 % 1030,4 hPa 0,0 l/m 0 min 0 min 0 W/m 9,7 km/h (2 Bft) 93,62 %
22.02.2019 05:46 8,7 C 7,8 C 7,2 C 98 % 1030,4 hPa 0,0 l/m 0 min 0 min 0 W/m 6,4 km/h (2 Bft) 93,48 %
22.02.2019 05:48 8,7 C 7,8 C 7,2 C 98 % 1030,5 hPa 0,0 l/m 0 min 0 min 0 W/m 6,4 km/h (2 Bft) 93,62 %
22.02.2019 05:50 8,7 C 7,8 C 7,2 C 98 % 1030,5 hPa 0,0 l/m 0 min 0 min 0 W/m 6,4 km/h (2 Bft) 91,49 %
22.02.2019 05:52 8,7 C 7,8 C 7,2 C 98 % 1030,5 hPa 0,0 l/m 0 min 0 min 0 W/m 9,7 km/h (2 Bft) 95,74 %
22.02.2019 05:54 8,7 C 7,8 C 7,2 C 98 % 1030,5 hPa 0,0 l/m 0 min 0 min 0 W/m 9,7 km/h (2 Bft) 95,74 %
22.02.2019 05:56 8,7 C 7,8 C 7,2 C 98 % 1030,5 hPa 0,0 l/m 0 min 0 min 0 W/m 3,2 km/h (1 Bft) 95,74 %
22.02.2019 05:58 8,7 C 7,8 C 7,2 C 98 % 1030,5 hPa 0,0 l/m 0 min 0 min 0 W/m 6,4 km/h (2 Bft) 97,83 %
22.02.2019 06:00 8,6 C 7,8 C 7,2 C 98 % 1030,5 hPa 0,0 l/m 0 min 0 min 0 W/m 0,0 km/h (0 Bft) 95,74 %
22.02.2019 06:02 8,6 C 7,8 C 7,2 C 98 % 1030,6 hPa 0,0 l/m 0 min 0 min 0 W/m 0,0 km/h (0 Bft) 96,00 %
22.02.2019 06:04 8,7 C 7,8 C 7,2 C 98 % 1030,6 hPa 0,0 l/m 0 min 0 min 0 W/m 6,4 km/h (2 Bft) 95,65 %
22.02.2019 06:08 8,6 C 7,8 C 7,2 C 98 % 1030,6 hPa 0,0 l/m 0 min 0 min 0 W/m 3,2 km/h (1 Bft) 97,87 %
22.02.2019 06:10 8,6 C 7,8 C 7,2 C 98 % 1030,7 hPa 0,0 l/m 0 min 0 min 0 W/m 6,4 km/h (2 Bft) 100,00 %
22.02.2019 06:12 8,6 C 7,8 C 7,2 C 98 % 1030,7 hPa 0,0 l/m 0 min 0 min 0 W/m 3,2 km/h (1 Bft) 100,00 %
22.02.2019 06:14 8,6 C 7,8 C 7,2 C 98 % 1030,7 hPa 0,0 l/m 0 min 0 min 0 W/m 0,0 km/h (0 Bft) 97,87 %
22.02.2019 06:16 8,6 C 7,8 C 7,2 C 98 % 1030,7 hPa 0,0 l/m 0 min 0 min 0 W/m 0,0 km/h (0 Bft) 97,83 %
22.02.2019 06:18 8,6 C 7,8 C 7,2 C 98 % 1030,7 hPa 0,2 l/m 0 min 0 min 0 W/m 0,0 km/h (0 Bft) 100,00 %
22.02.2019 06:20 8,6 C 7,8 C 7,2 C 98 % 1030,7 hPa 0,0 l/m 0 min 0 min 0 W/m 0,0 km/h (0 Bft) 100,00 %
22.02.2019 06:22 8,6 C 7,8 C 7,2 C 98 % 1030,8 hPa 0,0 l/m 0 min 0 min 0 W/m 0,0 km/h (0 Bft) 100,00 %
22.02.2019 06:24 8,6 C 7,8 C 7,2 C 98 % 1030,8 hPa 0,0 l/m 0 min 0 min 0 W/m 0,0 km/h (0 Bft) 97,87 %
22.02.2019 06:26 8,6 C 7,8 C 7,2 C 98 % 1030,8 hPa 0,0 l/m 0 min 0 min 0 W/m 0,0 km/h (0 Bft) 100,00 %
22.02.2019 06:28 8,6 C 7,8 C 7,2 C 98 % 1030,9 hPa 0,0 l/m 0 min 0 min 0 W/m 0,0 km/h (0 Bft) 95,65 %
22.02.2019 06:30 8,6 C 7,8 C 7,2 C 98 % 1030,9 hPa 0,0 l/m 0 min 0 min 0 W/m 0,0 km/h (0 Bft) 100,00 %
22.02.2019 06:32 8,6 C 7,8 C 7,2 C 98 % 1031,0 hPa 0,0 l/m 0 min 0 min 0 W/m 0,0 km/h (0 Bft) 100,00 %
22.02.2019 06:34 8,6 C 7,8 C 7,2 C 98 % 1031,0 hPa 0,0 l/m 0 min 0 min 0 W/m 0,0 km/h (0 Bft) 100,00 %
22.02.2019 06:36 8,6 C 7,8 C 7,2 C 98 % 1031,0 hPa 0,0 l/m 0 min 2 min 0 W/m 0,0 km/h (0 Bft) 100,00 %
22.02.2019 06:38 8,6 C 7,8 C 7,2 C 98 % 1031,0 hPa 0,0 l/m 0 min 0 min 0 W/m 0,0 km/h (0 Bft) 100,00 %
22.02.2019 06:40 8,6 C 7,8 C 7,2 C 98 % 1031,1 hPa 0,0 l/m 0 min 0 min 0 W/m 0,0 km/h (0 Bft) 100,00 %
22.02.2019 06:42 8,6 C 7,8 C 7,2 C 98 % 1031,1 hPa 0,0 l/m 0 min 2 min 0 W/m 3,2 km/h (1 Bft) 97,87 %
22.02.2019 06:44 8,6 C 7,8 C 7,2 C 98 % 1031,1 hPa 0,0 l/m 0 min 2 min 0 W/m 0,0 km/h (0 Bft) 100,00 %
22.02.2019 06:46 8,6 C 7,8 C 7,2 C 98 % 1031,1 hPa 0,0 l/m 0 min 0 min 0 W/m 0,0 km/h (0 Bft) 97,56 %
22.02.2019 06:48 8,5 C 7,8 C 7,2 C 98 % 1031,1 hPa 0,0 l/m 0 min 0 min 0 W/m 3,2 km/h (1 Bft) 100,00 %
22.02.2019 06:50 8,6 C 7,8 C 7,2 C 98 % 1031,1 hPa 0,0 l/m 0 min 0 min 0 W/m 9,7 km/h (2 Bft) 100,00 %
22.02.2019 06:52 8,6 C 7,8 C 7,2 C 98 % 1031,1 hPa 0,0 l/m 0 min 0 min 0 W/m 6,4 km/h (2 Bft) 97,87 %
22.02.2019 06:54 8,5 C 7,8 C 7,2 C 98 % 1031,2 hPa 0,0 l/m 0 min 0 min 0 W/m 6,4 km/h (2 Bft) 95,74 %
22.02.2019 06:56 8,5 C 7,8 C 7,2 C 98 % 1031,2 hPa 0,0 l/m 0 min 0 min 0 W/m 6,4 km/h (2 Bft) 97,92 %
22.02.2019 06:58 8,5 C 7,8 C 7,2 C 98 % 1031,2 hPa 0,0 l/m 0 min 0 min 0 W/m 6,4 km/h (2 Bft) 100,00 %
22.02.2019 07:00 8,6 C 7,8 C 7,2 C 98 % 1031,2 hPa 0,0 l/m 0 min 0 min 0 W/m 12,9 km/h (3 Bft) 100,00 %
22.02.2019 07:02 8,5 C 7,8 C 7,2 C 98 % 1031,3 hPa 0,0 l/m 0 min 0 min 0 W/m 6,4 km/h (2 Bft) 100,00 %
22.02.2019 07:04 8,5 C 7,8 C 7,2 C 98 % 1031,3 hPa 0,2 l/m 0 min 0 min 0 W/m 6,4 km/h (2 Bft) 100,00 %
22.02.2019 07:06 8,5 C 7,8 C 7,2 C 98 % 1031,3 hPa 0,0 l/m 0 min 0 min 0 W/m 3,2 km/h (1 Bft) 100,00 %
22.02.2019 07:08 8,6 C 7,8 C 7,2 C 98 % 1031,3 hPa 0,0 l/m 0 min 0 min 0 W/m 6,4 km/h (2 Bft) 100,00 %
22.02.2019 07:10 8,5 C 7,8 C 7,2 C 98 % 1031,3 hPa 0,0 l/m 0 min 0 min 0 W/m 3,2 km/h (1 Bft) 100,00 %
22.02.2019 07:12 8,5 C 7,8 C 7,2 C 98 % 1031,4 hPa 0,0 l/m 0 min 0 min 0 W/m 6,4 km/h (2 Bft) 100,00 %
22.02.2019 07:14 8,5 C 7,8 C 7,2 C 98 % 1031,4 hPa 0,0 l/m 0 min 0 min 0 W/m 3,2 km/h (1 Bft) 100,00 %
22.02.2019 07:16 8,5 C 7,8 C 7,2 C 98 % 1031,4 hPa 0,0 l/m 0 min 0 min 0 W/m 0,0 km/h (0 Bft) 100,00 %
22.02.2019 07:18 8,5 C 7,8 C 7,2 C 98 % 1031,4 hPa 0,0 l/m 0 min 0 min 0 W/m 0,0 km/h (0 Bft) 100,00 %
22.02.2019 07:20 8,5 C 7,8 C 7,2 C 98 % 1031,5 hPa 0,0 l/m 0 min 0 min 0 W/m 3,2 km/h (1 Bft) 100,00 %
22.02.2019 07:22 8,5 C 7,8 C 7,2 C 98 % 1031,5 hPa 0,0 l/m 0 min 0 min 0 W/m 0,0 km/h (0 Bft) 100,00 %
22.02.2019 07:24 8,5 C 7,8 C 7,2 C 98 % 1031,5 hPa 0,0 l/m 0 min 0 min 0 W/m 6,4 km/h (2 Bft) 97,87 %
22.02.2019 07:26 8,5 C 7,8 C 7,2 C 98 % 1031,4 hPa 0,0 l/m 0 min 0 min 0 W/m 3,2 km/h (1 Bft) 100,00 %
22.02.2019 07:28 8,5 C 7,8 C 7,2 C 98 % 1031,4 hPa 0,0 l/m 0 min 0 min 0 W/m 3,2 km/h (1 Bft) 100,00 %
22.02.2019 07:30 8,5 C 7,8 C 7,2 C 98 % 1031,5 hPa 0,0 l/m 0 min 0 min 0 W/m 3,2 km/h (1 Bft) 100,00 %
22.02.2019 07:32 8,5 C 7,8 C 7,2 C 98 % 1031,5 hPa 0,0 l/m 0 min 0 min 0 W/m 9,7 km/h (2 Bft) 97,83 %
22.02.2019 07:34 8,5 C 7,8 C 7,2 C 98 % 1031,5 hPa 0,0 l/m 0 min 0 min 0 W/m 6,4 km/h (2 Bft) 100,00 %
22.02.2019 07:36 8,5 C 7,8 C 7,2 C 98 % 1031,6 hPa 0,0 l/m 0 min 0 min 0 W/m 12,9 km/h (3 Bft) 100,00 %
22.02.2019 07:38 8,5 C 7,8 C 7,2 C 98 % 1031,6 hPa 0,0 l/m 0 min 0 min 0 W/m 3,2 km/h (1 Bft) 97,87 %
22.02.2019 07:40 8,4 C 7,8 C 7,2 C 98 % 1031,6 hPa 0,0 l/m 0 min 0 min 0 W/m 0,0 km/h (0 Bft) 97,87 %
22.02.2019 07:42 8,4 C 7,8 C 7,2 C 98 % 1031,6 hPa 0,0 l/m 0 min 0 min 0 W/m 3,2 km/h (1 Bft) 100,00 %
22.02.2019 07:44 8,4 C 7,8 C 7,2 C 98 % 1031,6 hPa 0,0 l/m 0 min 0 min 0 W/m 6,4 km/h (2 Bft) 100,00 %
22.02.2019 07:46 8,4 C 7,8 C 7,2 C 98 % 1031,6 hPa 0,0 l/m 0 min 0 min 2 W/m 6,4 km/h (2 Bft) 95,74 %
22.02.2019 07:48 8,4 C 7,8 C 7,2 C 98 % 1031,6 hPa 0,0 l/m 0 min 0 min 5 W/m 6,4 km/h (2 Bft) 97,87 %
22.02.2019 07:50 8,4 C 7,8 C 7,2 C 98 % 1031,7 hPa 0,0 l/m 0 min 0 min 6 W/m 6,4 km/h (2 Bft) 95,74 %
22.02.2019 07:52 8,4 C 7,8 C 7,2 C 98 % 1031,6 hPa 0,0 l/m 0 min 0 min 7 W/m 6,4 km/h (2 Bft) 97,87 %
22.02.2019 07:54 8,4 C 7,8 C 7,2 C 98 % 1031,7 hPa 0,0 l/m 0 min 0 min 7 W/m 6,4 km/h (2 Bft) 100,00 %
22.02.2019 07:56 8,4 C 7,8 C 7,2 C 98 % 1031,7 hPa 0,0 l/m 0 min 0 min 8 W/m 0,0 km/h (0 Bft) 97,87 %
22.02.2019 07:58 8,4 C 7,8 C 7,2 C 98 % 1031,7 hPa 0,0 l/m 0 min 0 min 9 W/m 0,0 km/h (0 Bft) 93,62 %
22.02.2019 08:00 8,4 C 7,8 C 7,2 C 98 % 1031,7 hPa 0,0 l/m 0 min 0 min 9 W/m 0,0 km/h (0 Bft) 95,74 %
22.02.2019 08:02 8,4 C 7,8 C 7,2 C 98 % 1031,7 hPa 0,0 l/m 0 min 0 min 11 W/m 3,2 km/h (1 Bft) 95,74 %
22.02.2019 08:04 8,4 C 7,8 C 7,2 C 98 % 1031,8 hPa 0,0 l/m 0 min 0 min 9 W/m 3,2 km/h (1 Bft) 95,74 %
22.02.2019 08:06 8,4 C 7,8 C 7,2 C 98 % 1031,7 hPa 0,0 l/m 0 min 0 min 11 W/m 3,2 km/h (1 Bft) 97,83 %
22.02.2019 08:08 8,4 C 7,8 C 7,2 C 98 % 1031,8 hPa 0,0 l/m 0 min 0 min 12 W/m 6,4 km/h (2 Bft) 93,62 %
22.02.2019 08:10 8,4 C 7,8 C 7,2 C 98 % 1031,7 hPa 0,0 l/m 0 min 0 min 13 W/m 6,4 km/h (2 Bft) 93,62 %
22.02.2019 08:12 8,4 C 7,8 C 7,2 C 98 % 1031,8 hPa 0,0 l/m 0 min 0 min 17 W/m 3,2 km/h (1 Bft) 95,74 %
22.02.2019 08:14 8,4 C 7,8 C 7,2 C 98 % 1031,8 hPa 0,0 l/m 0 min 0 min 18 W/m 3,2 km/h (1 Bft) 95,74 %
22.02.2019 08:16 8,4 C 7,8 C 7,2 C 98 % 1031,8 hPa 0,0 l/m 0 min 0 min 17 W/m 3,2 km/h (1 Bft) 95,74 %
22.02.2019 08:18 8,4 C 7,8 C 7,2 C 98 % 1031,8 hPa 0,0 l/m 0 min 0 min 15 W/m 6,4 km/h (2 Bft) 95,65 %
22.02.2019 08:20 8,4 C 7,8 C 7,2 C 98 % 1031,8 hPa 0,0 l/m 0 min 0 min 15 W/m 6,4 km/h (2 Bft) 95,74 %
22.02.2019 08:22 8,4 C 7,8 C 7,2 C 98 % 1031,9 hPa 0,0 l/m 0 min 0 min 20 W/m 6,4 km/h (2 Bft) 91,49 %
22.02.2019 08:24 8,4 C 7,8 C 7,2 C 98 % 1031,9 hPa 0,0 l/m 0 min 0 min 22 W/m 6,4 km/h (2 Bft) 95,74 %
22.02.2019 08:26 8,4 C 7,8 C 7,2 C 98 % 1032,0 hPa 0,0 l/m 0 min 0 min 21 W/m 6,4 km/h (2 Bft) 93,62 %
22.02.2019 08:28 8,5 C 7,8 C 7,2 C 98 % 1032,0 hPa 0,0 l/m 0 min 0 min 20 W/m 3,2 km/h (1 Bft) 93,62 %
22.02.2019 08:30 8,5 C 7,8 C 7,2 C 98 % 1032,0 hPa 0,0 l/m 0 min 0 min 20 W/m 6,4 km/h (2 Bft) 95,65 %
22.02.2019 08:32 8,5 C 7,8 C 7,2 C 98 % 1032,0 hPa 0,0 l/m 0 min 0 min 21 W/m 3,2 km/h (1 Bft) 97,87 %
22.02.2019 08:34 8,5 C 7,8 C 7,2 C 98 % 1032,0 hPa 0,0 l/m 0 min 0 min 20 W/m 3,2 km/h (1 Bft) 93,62 %
22.02.2019 08:36 8,5 C 7,8 C 7,2 C 98 % 1032,1 hPa 0,0 l/m 0 min 0 min 19 W/m 6,4 km/h (2 Bft) 91,49 %
22.02.2019 08:38 8,5 C 7,8 C 7,2 C 98 % 1032,1 hPa 0,0 l/m 0 min 0 min 18 W/m 3,2 km/h (1 Bft) 93,62 %
22.02.2019 08:40 8,5 C 7,8 C 7,2 C 98 % 1032,2 hPa 0,0 l/m 0 min 0 min 19 W/m 0,0 km/h (0 Bft) 93,62 %
22.02.2019 08:42 8,5 C 7,8 C 7,2 C 98 % 1032,2 hPa 0,0 l/m 0 min 0 min 22 W/m 0,0 km/h (0 Bft) 93,48 %
22.02.2019 08:44 8,5 C 7,8 C 7,2 C 98 % 1032,3 hPa 0,0 l/m 0 min 0 min 21 W/m 0,0 km/h (0 Bft) 95,74 %
22.02.2019 08:46 8,5 C 7,8 C 7,2 C 98 % 1032,4 hPa 0,0 l/m 0 min 0 min 19 W/m 0,0 km/h (0 Bft) 93,62 %
22.02.2019 08:48 8,5 C 7,8 C 7,2 C 98 % 1032,4 hPa 0,0 l/m 0 min 0 min 20 W/m 0,0 km/h (0 Bft) 95,74 %
22.02.2019 08:50 8,5 C 7,8 C 7,2 C 98 % 1032,4 hPa 0,0 l/m 0 min 0 min 20 W/m 0,0 km/h (0 Bft) 97,87 %
22.02.2019 08:52 8,5 C 7,8 C 7,2 C 98 % 1032,4 hPa 0,0 l/m 0 min 0 min 19 W/m 3,2 km/h (1 Bft) 95,65 %
22.02.2019 08:54 8,5 C 7,8 C 7,8 C 98 % 1032,4 hPa 0,0 l/m 0 min 0 min 21 W/m 0,0 km/h (0 Bft) 97,87 %
22.02.2019 08:56 8,5 C 7,8 C 7,8 C 98 % 1032,5 hPa 0,0 l/m 0 min 0 min 21 W/m 0,0 km/h (0 Bft) 95,74 %
22.02.2019 08:58 8,5 C 7,8 C 7,8 C 98 % 1032,5 hPa 0,0 l/m 0 min 0 min 21 W/m 0,0 km/h (0 Bft) 97,87 %
22.02.2019 09:00 8,5 C 7,8 C 7,8 C 98 % 1032,6 hPa 0,0 l/m 0 min 0 min 21 W/m 3,2 km/h (1 Bft) 97,87 %
22.02.2019 09:02 8,6 C 7,8 C 7,8 C 98 % 1032,6 hPa 0,0 l/m 0 min 0 min 19 W/m 12,9 km/h (3 Bft) 97,87 %
22.02.2019 09:04 8,6 C 7,8 C 7,2 C 98 % 1032,6 hPa 0,0 l/m 0 min 0 min 18 W/m 6,4 km/h (2 Bft) 95,65 %
22.02.2019 09:06 8,6 C 7,8 C 7,2 C 98 % 1032,7 hPa 0,0 l/m 0 min 0 min 18 W/m 3,2 km/h (1 Bft) 97,87 %
22.02.2019 09:08 8,6 C 7,8 C 7,2 C 98 % 1032,7 hPa 0,0 l/m 0 min 0 min 19 W/m 3,2 km/h (1 Bft) 95,74 %
22.02.2019 09:10 8,6 C 7,8 C 7,2 C 98 % 1032,7 hPa 0,0 l/m 0 min 0 min 19 W/m 3,2 km/h (1 Bft) 95,74 %
22.02.2019 09:12 8,6 C 7,8 C 7,2 C 98 % 1032,7 hPa 0,0 l/m 0 min 0 min 22 W/m 6,4 km/h (2 Bft) 97,87 %
22.02.2019 09:14 8,6 C 7,8 C 7,2 C 98 % 1032,7 hPa 0,0 l/m 0 min 0 min 21 W/m 3,2 km/h (1 Bft) 97,87 %
22.02.2019 09:16 8,6 C 7,8 C 7,8 C 98 % 1032,7 hPa 0,0 l/m 0 min 0 min 26 W/m 3,2 km/h (1 Bft) 97,83 %
22.02.2019 09:18 8,6 C 7,8 C 7,2 C 98 % 1032,8 hPa 0,0 l/m 0 min 0 min 27 W/m 6,4 km/h (2 Bft) 97,87 %
22.02.2019 09:20 8,6 C 7,8 C 7,2 C 98 % 1032,8 hPa 0,0 l/m 0 min 0 min 26 W/m 6,4 km/h (2 Bft) 97,87 %
22.02.2019 09:22 8,6 C 7,8 C 7,8 C 98 % 1032,9 hPa 0,0 l/m 0 min 0 min 26 W/m 0,0 km/h (0 Bft) 100,00 %
22.02.2019 09:24 8,6 C 7,8 C 7,8 C 98 % 1032,8 hPa 0,0 l/m 0 min 0 min 25 W/m 3,2 km/h (1 Bft) 97,87 %
22.02.2019 09:26 8,6 C 7,8 C 7,8 C 98 % 1032,9 hPa 0,0 l/m 0 min 0 min 26 W/m 3,2 km/h (1 Bft) 97,87 %
22.02.2019 09:28 8,6 C 7,8 C 7,8 C 98 % 1033,0 hPa 0,0 l/m 0 min 0 min 28 W/m 6,4 km/h (2 Bft) 97,83 %
22.02.2019 09:30 8,6 C 7,8 C 7,8 C 98 % 1033,0 hPa 0,0 l/m 0 min 0 min 28 W/m 0,0 km/h (0 Bft) 97,87 %
22.02.2019 09:32 8,6 C 7,8 C 7,8 C 98 % 1033,1 hPa 0,0 l/m 0 min 0 min 28 W/m 6,4 km/h (2 Bft) 100,00 %
22.02.2019 09:34 8,6 C 7,8 C 7,8 C 98 % 1033,1 hPa 0,0 l/m 0 min 0 min 31 W/m 6,4 km/h (2 Bft) 100,00 %
22.02.2019 09:36 8,6 C 7,8 C 7,8 C 98 % 1033,2 hPa 0,0 l/m 0 min 0 min 30 W/m 12,9 km/h (3 Bft) 97,87 %
22.02.2019 09:38 8,6 C 7,8 C 7,8 C 98 % 1033,2 hPa 0,0 l/m 0 min 0 min 28 W/m 6,4 km/h (2 Bft) 100,00 %
22.02.2019 09:40 8,6 C 7,8 C 7,8 C 99 % 1033,2 hPa 0,0 l/m 0 min 0 min 30 W/m 9,7 km/h (2 Bft) 97,83 %
22.02.2019 09:42 8,6 C 7,8 C 7,8 C 99 % 1033,3 hPa 0,0 l/m 0 min 0 min 32 W/m 6,4 km/h (2 Bft) 100,00 %
22.02.2019 09:44 8,6 C 8,3 C 7,8 C 99 % 1033,3 hPa 0,0 l/m 0 min 0 min 32 W/m 6,4 km/h (2 Bft) 100,00 %
22.02.2019 09:46 8,6 C 8,3 C 7,8 C 99 % 1033,4 hPa 0,0 l/m 0 min 0 min 32 W/m 6,4 km/h (2 Bft) 97,87 %
22.02.2019 09:48 8,6 C 8,3 C 7,8 C 99 % 1033,3 hPa 0,0 l/m 0 min 0 min 36 W/m 3,2 km/h (1 Bft) 100,00 %
22.02.2019 09:50 8,6 C 8,3 C 7,8 C 99 % 1033,3 hPa 0,0 l/m 0 min 0 min 42 W/m 0,0 km/h (0 Bft) 97,87 %
22.02.2019 09:52 8,7 C 8,3 C 7,8 C 99 % 1033,3 hPa 0,0 l/m 0 min 0 min 42 W/m 6,4 km/h (2 Bft) 97,83 %
22.02.2019 09:54 8,7 C 8,3 C 7,8 C 99 % 1033,3 hPa 0,0 l/m 0 min 0 min 46 W/m 6,4 km/h (2 Bft) 97,87 %
22.02.2019 09:56 8,7 C 8,3 C 7,8 C 99 % 1033,4 hPa 0,0 l/m 0 min 0 min 47 W/m 3,2 km/h (1 Bft) 100,00 %
22.02.2019 09:58 8,7 C 8,3 C 7,8 C 99 % 1033,4 hPa 0,2 l/m 0 min 0 min 48 W/m 3,2 km/h (1 Bft) 100,00 %
22.02.2019 10:00 8,7 C 8,3 C 7,8 C 99 % 1033,5 hPa 0,0 l/m 0 min 0 min 47 W/m 3,2 km/h (1 Bft) 100,00 %
22.02.2019 10:02 8,7 C 8,3 C 7,8 C 99 % 1033,4 hPa 0,0 l/m 0 min 0 min 45 W/m 0,0 km/h (0 Bft) 95,74 %
22.02.2019 10:04 8,7 C 8,3 C 7,8 C 99 % 1033,4 hPa 0,0 l/m 0 min 0 min 43 W/m 0,0 km/h (0 Bft) 100,00 %
22.02.2019 10:06 8,7 C 8,3 C 7,8 C 99 % 1033,5 hPa 0,0 l/m 0 min 0 min 43 W/m 6,4 km/h (2 Bft) 100,00 %
22.02.2019 10:08 8,7 C 8,3 C 7,8 C 99 % 1033,4 hPa 0,0 l/m 0 min 0 min 46 W/m 0,0 km/h (0 Bft) 100,00 %
22.02.2019 10:10 8,8 C 8,3 C 7,8 C 99 % 1033,5 hPa 0,0 l/m 0 min 0 min 47 W/m 6,4 km/h (2 Bft) 100,00 %
22.02.2019 10:12 8,8 C 8,3 C 7,8 C 99 % 1033,5 hPa 0,0 l/m 0 min 0 min 45 W/m 0,0 km/h (0 Bft) 100,00 %
22.02.2019 10:14 8,8 C 8,3 C 7,8 C 99 % 1033,5 hPa 0,0 l/m 0 min 0 min 45 W/m 6,4 km/h (2 Bft) 100,00 %
22.02.2019 10:16 8,8 C 8,3 C 7,8 C 99 % 1033,5 hPa 0,0 l/m 0 min 0 min 47 W/m 3,2 km/h (1 Bft) 100,00 %
22.02.2019 10:18 8,8 C 8,3 C 7,8 C 99 % 1033,5 hPa 0,0 l/m 0 min 0 min 46 W/m 0,0 km/h (0 Bft) 100,00 %
22.02.2019 10:20 8,8 C 8,3 C 7,8 C 99 % 1033,5 hPa 0,0 l/m 0 min 0 min 44 W/m 0,0 km/h (0 Bft) 100,00 %
22.02.2019 10:22 8,8 C 8,3 C 7,8 C 99 % 1033,6 hPa 0,0 l/m 0 min 0 min 44 W/m 0,0 km/h (0 Bft) 100,00 %
22.02.2019 10:24 8,9 C 8,9 C 7,8 C 99 % 1033,6 hPa 0,0 l/m 0 min 0 min 43 W/m 0,0 km/h (0 Bft) 97,87 %
22.02.2019 10:26 8,9 C 8,3 C 7,8 C 99 % 1033,6 hPa 0,0 l/m 0 min 0 min 44 W/m 0,0 km/h (0 Bft) 100,00 %
22.02.2019 10:28 8,9 C 8,9 C 8,3 C 99 % 1033,6 hPa 0,0 l/m 0 min 0 min 48 W/m 0,0 km/h (0 Bft) 100,00 %
22.02.2019 10:30 8,9 C 8,9 C 8,3 C 99 % 1033,7 hPa 0,0 l/m 0 min 0 min 52 W/m 0,0 km/h (0 Bft) 97,87 %
22.02.2019 10:32 8,9 C 8,9 C 8,3 C 99 % 1033,7 hPa 0,0 l/m 0 min 0 min 53 W/m 0,0 km/h (0 Bft) 91,49 %
22.02.2019 10:34 8,9 C 8,9 C 8,3 C 99 % 1033,7 hPa 0,0 l/m 0 min 0 min 52 W/m 0,0 km/h (0 Bft) 93,62 %
22.02.2019 10:36 9,0 C 8,9 C 8,3 C 99 % 1033,7 hPa 0,0 l/m 0 min 0 min 47 W/m 0,0 km/h (0 Bft) 97,87 %
22.02.2019 10:38 9,0 C 8,9 C 8,3 C 99 % 1033,7 hPa 0,0 l/m 0 min 0 min 51 W/m 0,0 km/h (0 Bft) 97,83 %
22.02.2019 10:40 9,0 C 8,9 C 8,3 C 99 % 1033,7 hPa 0,0 l/m 0 min 0 min 50 W/m 0,0 km/h (0 Bft) 97,87 %
22.02.2019 10:42 9,1 C 8,9 C 8,3 C 99 % 1033,7 hPa 0,0 l/m 0 min 0 min 42 W/m 0,0 km/h (0 Bft) 95,74 %
22.02.2019 10:44 9,1 C 8,9 C 8,3 C 99 % 1033,8 hPa 0,0 l/m 0 min 0 min 43 W/m 0,0 km/h (0 Bft) 95,74 %
22.02.2019 10:46 9,1 C 8,9 C 8,3 C 99 % 1033,8 hPa 0,0 l/m 0 min 0 min 46 W/m 0,0 km/h (0 Bft) 91,49 %
22.02.2019 10:48 9,1 C 8,9 C 8,3 C 99 % 1033,8 hPa 0,0 l/m 0 min 0 min 42 W/m 0,0 km/h (0 Bft) 97,87 %
22.02.2019 10:50 9,1 C 8,9 C 8,3 C 99 % 1033,8 hPa 0,0 l/m 0 min 0 min 42 W/m 0,0 km/h (0 Bft) 95,65 %
22.02.2019 10:52 9,1 C 8,9 C 8,3 C 99 % 1033,8 hPa 0,0 l/m 0 min 0 min 46 W/m 0,0 km/h (0 Bft) 95,74 %
22.02.2019 10:54 9,1 C 8,9 C 8,3 C 99 % 1033,8 hPa 0,0 l/m 0 min 0 min 51 W/m 0,0 km/h (0 Bft) 95,74 %
22.02.2019 10:56 9,2 C 8,9 C 8,3 C 99 % 1033,9 hPa 0,0 l/m 0 min 0 min 53 W/m 0,0 km/h (0 Bft) 93,62 %
22.02.2019 10:58 9,2 C 8,9 C 8,3 C 99 % 1033,9 hPa 0,0 l/m 0 min 0 min 52 W/m 0,0 km/h (0 Bft) 95,74 %
22.02.2019 11:00 9,2 C 8,9 C 8,3 C 99 % 1033,8 hPa 0,0 l/m 0 min 0 min 63 W/m 0,0 km/h (0 Bft) 95,74 %
22.02.2019 11:02 9,2 C 8,9 C 8,3 C 99 % 1033,8 hPa 0,0 l/m 0 min 0 min 85 W/m 0,0 km/h (0 Bft) 91,30 %
22.02.2019 11:04 9,2 C 8,9 C 8,9 C 99 % 1033,9 hPa 0,0 l/m 0 min 0 min 90 W/m 0,0 km/h (0 Bft) 95,74 %
22.02.2019 11:06 9,2 C 9,4 C 8,9 C 99 % 1033,9 hPa 0,0 l/m 0 min 0 min 92 W/m 0,0 km/h (0 Bft) 93,62 %
22.02.2019 11:08 9,2 C 9,4 C 8,9 C 99 % 1033,9 hPa 0,0 l/m 0 min 0 min 90 W/m 0,0 km/h (0 Bft) 93,62 %
22.02.2019 11:10 9,3 C 9,4 C 8,9 C 99 % 1033,9 hPa 0,0 l/m 0 min 0 min 90 W/m 0,0 km/h (0 Bft) 95,74 %
22.02.2019 11:12 9,3 C 9,4 C 8,9 C 99 % 1033,8 hPa 0,0 l/m 0 min 0 min 92 W/m 0,0 km/h (0 Bft) 93,62 %
22.02.2019 11:14 9,3 C 9,4 C 8,9 C 99 % 1033,9 hPa 0,0 l/m 0 min 0 min 98 W/m 0,0 km/h (0 Bft) 95,65 %
22.02.2019 11:16 9,3 C 9,4 C 8,9 C 99 % 1033,9 hPa 0,0 l/m 0 min 0 min 96 W/m 0,0 km/h (0 Bft) 97,87 %
22.02.2019 11:18 9,4 C 9,4 C 8,9 C 99 % 1033,9 hPa 0,0 l/m 0 min 0 min 98 W/m 0,0 km/h (0 Bft) 97,87 %
22.02.2019 11:20 9,4 C 9,4 C 8,9 C 99 % 1033,9 hPa 0,0 l/m 0 min 0 min 98 W/m 0,0 km/h (0 Bft) 95,74 %
22.02.2019 11:22 9,4 C 9,4 C 8,9 C 99 % 1033,9 hPa 0,0 l/m 0 min 0 min 97 W/m 0,0 km/h (0 Bft) 97,87 %
22.02.2019 11:24 9,4 C 9,4 C 8,9 C 99 % 1033,9 hPa 0,0 l/m 0 min 0 min 99 W/m 0,0 km/h (0 Bft) 97,83 %
22.02.2019 11:26 9,4 C 9,4 C 8,9 C 99 % 1033,9 hPa 0,0 l/m 0 min 0 min 97 W/m 0,0 km/h (0 Bft) 97,87 %
22.02.2019 11:28 9,4 C 9,4 C 8,9 C 99 % 1034,0 hPa 0,0 l/m 0 min 0 min 98 W/m 0,0 km/h (0 Bft) 97,87 %
22.02.2019 11:30 9,4 C 9,4 C 8,9 C 99 % 1034,0 hPa 0,0 l/m 0 min 0 min 100 W/m 0,0 km/h (0 Bft) 97,87 %
22.02.2019 11:32 9,5 C 10,0 C 8,9 C 99 % 1034,0 hPa 0,0 l/m 0 min 0 min 103 W/m 0,0 km/h (0 Bft) 97,87 %
22.02.2019 11:34 9,5 C 10,0 C 9,4 C 99 % 1034,0 hPa 0,0 l/m 0 min 0 min 102 W/m 0,0 km/h (0 Bft) 97,87 %
22.02.2019 11:36 9,5 C 9,4 C 9,4 C 99 % 1034,1 hPa 0,0 l/m 0 min 0 min 106 W/m 0,0 km/h (0 Bft) 97,83 %
22.02.2019 11:38 9,6 C 10,0 C 9,4 C 99 % 1034,0 hPa 0,0 l/m 0 min 0 min 114 W/m 0,0 km/h (0 Bft) 95,74 %
22.02.2019 11:40 9,6 C 10,0 C 9,4 C 99 % 1034,0 hPa 0,0 l/m 0 min 0 min 115 W/m 0,0 km/h (0 Bft) 97,87 %
22.02.2019 11:42 9,6 C 10,0 C 9,4 C 99 % 1034,1 hPa 0,0 l/m 0 min 0 min 103 W/m 0,0 km/h (0 Bft) 97,87 %
22.02.2019 11:44 9,7 C 10,0 C 9,4 C 99 % 1034,1 hPa 0,0 l/m 0 min 0 min 100 W/m 0,0 km/h (0 Bft) 91,49 %
22.02.2019 11:46 9,7 C 9,4 C 9,4 C 99 % 1034,0 hPa 0,0 l/m 0 min 0 min 116 W/m 0,0 km/h (0 Bft) 100,00 %
22.02.2019 11:48 9,7 C 10,0 C 9,4 C 99 % 1034,0 hPa 0,0 l/m 0 min 0 min 122 W/m 0,0 km/h (0 Bft) 95,65 %
22.02.2019 11:50 9,7 C 9,4 C 9,4 C 99 % 1034,1 hPa 0,0 l/m 0 min 0 min 126 W/m 0,0 km/h (0 Bft) 97,87 %
22.02.2019 11:52 9,7 C 10,0 C 9,4 C 99 % 1034,0 hPa 0,0 l/m 0 min 0 min 143 W/m 0,0 km/h (0 Bft) 97,87 %
22.02.2019 11:54 9,7 C 10,0 C 9,4 C 99 % 1034,1 hPa 0,0 l/m 0 min 0 min 170 W/m 0,0 km/h (0 Bft) 97,87 %
22.02.2019 11:56 9,7 C 10,0 C 10,0 C 99 % 1034,0 hPa 0,0 l/m 0 min 0 min 180 W/m 0,0 km/h (0 Bft) 97,87 %
22.02.2019 11:58 9,8 C 10,6 C 10,0 C 99 % 1034,2 hPa 0,0 l/m 0 min 0 min 186 W/m 0,0 km/h (0 Bft) 97,87 %
22.02.2019 12:00 9,8 C 10,6 C 10,0 C 99 % 1034,2 hPa 0,0 l/m 0 min 0 min 183 W/m 0,0 km/h (0 Bft) 97,83 %
22.02.2019 12:02 9,8 C 10,6 C 10,0 C 99 % 1034,2 hPa 0,0 l/m 0 min 0 min 179 W/m 0,0 km/h (0 Bft) 97,87 %
22.02.2019 12:04 9,9 C 10,6 C 10,0 C 99 % 1034,2 hPa 0,0 l/m 0 min 0 min 179 W/m 0,0 km/h (0 Bft) 97,87 %
22.02.2019 12:08 9,9 C 10,6 C 10,0 C 99 % 1034,1 hPa 0,0 l/m 0 min 0 min 191 W/m 0,0 km/h (0 Bft) 97,87 %
22.02.2019 12:10 9,9 C 10,6 C 10,0 C 99 % 1034,1 hPa 0,0 l/m 0 min 0 min 198 W/m 0,0 km/h (0 Bft) 97,87 %
22.02.2019 12:12 10,0 C 10,6 C 10,0 C 99 % 1034,1 hPa 0,0 l/m 0 min 0 min 205 W/m 0,0 km/h (0 Bft) 97,83 %
22.02.2019 12:14 10,0 C 10,6 C 10,0 C 99 % 1034,1 hPa 0,0 l/m 0 min 0 min 201 W/m 0,0 km/h (0 Bft) 97,87 %
22.02.2019 12:16 10,1 C 10,6 C 10,0 C 99 % 1034,2 hPa 0,0 l/m 0 min 0 min 206 W/m 0,0 km/h (0 Bft) 97,87 %
22.02.2019 12:18 10,1 C 10,6 C 10,0 C 99 % 1034,1 hPa 0,0 l/m 0 min 0 min 200 W/m 0,0 km/h (0 Bft) 97,87 %
22.02.2019 12:20 10,1 C 10,6 C 10,0 C 99 % 1034,2 hPa 0,0 l/m 0 min 0 min 183 W/m 0,0 km/h (0 Bft) 95,74 %
22.02.2019 12:22 10,1 C 11,1 C 10,6 C 99 % 1034,1 hPa 0,0 l/m 0 min 0 min 185 W/m 0,0 km/h (0 Bft) 97,87 %
22.02.2019 12:24 10,1 C 11,1 C 10,6 C 99 % 1034,1 hPa 0,0 l/m 0 min 0 min 190 W/m 0,0 km/h (0 Bft) 97,83 %
22.02.2019 12:26 10,2 C 11,1 C 10,0 C 99 % 1034,1 hPa 0,0 l/m 0 min 0 min 187 W/m 0,0 km/h (0 Bft) 97,87 %
22.02.2019 12:28 10,1 C 11,1 C 10,0 C 99 % 1034,1 hPa 0,0 l/m 0 min 0 min 194 W/m 0,0 km/h (0 Bft) 97,87 %
22.02.2019 12:30 10,1 C 11,1 C 10,6 C 99 % 1034,2 hPa 0,0 l/m 0 min 0 min 193 W/m 0,0 km/h (0 Bft) 97,87 %
22.02.2019 12:32 10,1 C 11,7 C 10,6 C 99 % 1034,2 hPa 0,0 l/m 0 min 0 min 201 W/m 0,0 km/h (0 Bft) 97,56 %
22.02.2019 12:34 10,2 C 11,7 C 10,6 C 99 % 1034,2 hPa 0,0 l/m 0 min 0 min 210 W/m 3,2 km/h (1 Bft) 97,87 %
22.02.2019 12:36 10,2 C 11,7 C 10,6 C 99 % 1034,1 hPa 0,0 l/m 0 min 0 min 191 W/m 3,2 km/h (1 Bft) 98,31 %
22.02.2019 12:38 10,2 C 11,7 C 10,6 C 99 % 1034,1 hPa 0,0 l/m 0 min 0 min 186 W/m 0,0 km/h (0 Bft) 100,00 %
22.02.2019 12:40 10,3 C 11,7 C 10,6 C 99 % 1034,1 hPa 0,0 l/m 0 min 0 min 204 W/m 0,0 km/h (0 Bft) 94,29 %
22.02.2019 12:42 10,3 C 11,7 C 11,1 C 99 % 1034,1 hPa 0,0 l/m 0 min 0 min 197 W/m 0,0 km/h (0 Bft) 97,83 %
22.02.2019 12:44 10,3 C 11,7 C 10,6 C 99 % 1034,2 hPa 0,0 l/m 0 min 0 min 172 W/m 0,0 km/h (0 Bft) 100,00 %
22.02.2019 12:46 10,4 C 11,7 C 10,6 C 99 % 1034,2 hPa 0,0 l/m 0 min 0 min 144 W/m 0,0 km/h (0 Bft) 100,00 %
22.02.2019 12:48 10,4 C 11,7 C 10,6 C 99 % 1034,2 hPa 0,0 l/m 0 min 0 min 140 W/m 0,0 km/h (0 Bft) 100,00 %
22.02.2019 12:50 10,4 C 11,7 C 10,6 C 99 % 1034,2 hPa 0,0 l/m 0 min 0 min 139 W/m 0,0 km/h (0 Bft) 97,87 %
22.02.2019 12:52 10,5 C 11,7 C 10,6 C 99 % 1034,2 hPa 0,0 l/m 0 min 0 min 131 W/m 0,0 km/h (0 Bft) 97,87 %
22.02.2019 12:54 10,5 C 11,7 C 10,6 C 99 % 1034,2 hPa 0,0 l/m 0 min 0 min 131 W/m 0,0 km/h (0 Bft) 100,00 %
22.02.2019 12:56 10,6 C 11,1 C 10,6 C 99 % 1034,3 hPa 0,0 l/m 0 min 0 min 134 W/m 0,0 km/h (0 Bft) 97,87 %
22.02.2019 12:58 10,6 C 11,7 C 10,6 C 99 % 1034,3 hPa 0,0 l/m 0 min 0 min 140 W/m 0,0 km/h (0 Bft) 97,87 %
22.02.2019 13:00 10,6 C 11,7 C 10,6 C 99 % 1034,3 hPa 0,0 l/m 0 min 0 min 156 W/m 0,0 km/h (0 Bft) 97,87 %
22.02.2019 13:02 10,6 C 11,7 C 10,6 C 99 % 1034,2 hPa 0,0 l/m 0 min 0 min 169 W/m 0,0 km/h (0 Bft) 97,87 %
22.02.2019 13:04 10,6 C 11,7 C 10,6 C 99 % 1034,1 hPa 0,0 l/m 0 min 0 min 181 W/m 0,0 km/h (0 Bft) 97,87 %
22.02.2019 13:06 10,6 C 12,2 C 10,6 C 99 % 1034,1 hPa 0,0 l/m 0 min 0 min 194 W/m 0,0 km/h (0 Bft) 96,55 %
22.02.2019 13:08 10,7 C 12,2 C 11,1 C 99 % 1034,1 hPa 0,0 l/m 0 min 0 min 210 W/m 3,2 km/h (1 Bft) 97,87 %
22.02.2019 13:10 10,7 C 12,2 C 11,1 C 99 % 1034,1 hPa 0,0 l/m 0 min 0 min 207 W/m 0,0 km/h (0 Bft) 97,14 %
22.02.2019 13:12 10,8 C 12,8 C 11,1 C 99 % 1034,1 hPa 0,0 l/m 0 min 0 min 191 W/m 3,2 km/h (1 Bft) 97,87 %
22.02.2019 13:14 10,8 C 12,8 C 11,1 C 99 % 1034,1 hPa 0,0 l/m 0 min 0 min 183 W/m 0,0 km/h (0 Bft) 97,87 %
22.02.2019 13:16 10,9 C 12,2 C 11,1 C 99 % 1034,0 hPa 0,0 l/m 0 min 0 min 177 W/m 3,2 km/h (1 Bft) 97,87 %
22.02.2019 13:18 10,9 C 12,2 C 11,1 C 99 % 1034,0 hPa 0,0 l/m 0 min 0 min 181 W/m 3,2 km/h (1 Bft) 97,83 %
22.02.2019 13:20 10,9 C 12,2 C 11,1 C 99 % 1034,0 hPa 0,0 l/m 0 min 0 min 190 W/m 6,4 km/h (2 Bft) 97,87 %
22.02.2019 13:22 10,9 C 12,8 C 11,7 C 99 % 1034,0 hPa 0,0 l/m 0 min 0 min 200 W/m 6,4 km/h (2 Bft) 97,87 %
22.02.2019 13:24 11,0 C 12,8 C 11,7 C 99 % 1034,1 hPa 0,0 l/m 0 min 0 min 201 W/m 6,4 km/h (2 Bft) 95,74 %
22.02.2019 13:26 11,1 C 12,8 C 11,7 C 99 % 1034,0 hPa 0,0 l/m 0 min 0 min 219 W/m 6,4 km/h (2 Bft) 97,87 %
22.02.2019 13:28 11,1 C 13,3 C 11,7 C 99 % 1034,0 hPa 0,0 l/m 0 min 0 min 233 W/m 6,4 km/h (2 Bft) 97,87 %
22.02.2019 13:30 11,2 C 13,3 C 12,2 C 99 % 1034,0 hPa 0,0 l/m 2 min 0 min 249 W/m 3,2 km/h (1 Bft) 97,83 %
22.02.2019 13:32 11,2 C 15,0 C 12,8 C 99 % 1034,0 hPa 0,0 l/m 2 min 0 min 302 W/m 6,4 km/h (2 Bft) 97,87 %
22.02.2019 13:34 11,3 C 15,0 C 12,8 C 99 % 1034,1 hPa 0,0 l/m 2 min 0 min 345 W/m 3,2 km/h (1 Bft) 97,87 %
22.02.2019 13:36 11,4 C 14,4 C 12,2 C 99 % 1034,0 hPa 0,0 l/m 2 min 0 min 394 W/m 6,4 km/h (2 Bft) 98,31 %
22.02.2019 13:38 11,4 C 14,4 C 12,2 C 99 % 1034,1 hPa 0,0 l/m 2 min 0 min 316 W/m 9,7 km/h (2 Bft) 100,00 %
22.02.2019 13:40 11,4 C 14,4 C 12,2 C 99 % 1034,1 hPa 0,0 l/m 2 min 0 min 248 W/m 3,2 km/h (1 Bft) 100,00 %
22.02.2019 13:42 11,5 C 14,4 C 11,7 C 99 % 1034,2 hPa 0,0 l/m 0 min 0 min 224 W/m 0,0 km/h (0 Bft) 97,83 %
22.02.2019 13:44 11,6 C 13,9 C 11,7 C 99 % 1034,2 hPa 0,0 l/m 0 min 0 min 213 W/m 9,7 km/h (2 Bft) 100,00 %
22.02.2019 13:46 11,6 C 13,9 C 11,7 C 99 % 1034,2 hPa 0,0 l/m 0 min 0 min 205 W/m 9,7 km/h (2 Bft) 97,87 %
22.02.2019 13:48 11,6 C 13,3 C 11,7 C 99 % 1034,3 hPa 0,0 l/m 0 min 0 min 207 W/m 6,4 km/h (2 Bft) 100,00 %
22.02.2019 13:50 11,6 C 13,9 C 11,7 C 99 % 1034,3 hPa 0,0 l/m 2 min 0 min 266 W/m 9,7 km/h (2 Bft) 100,00 %
22.02.2019 13:52 11,6 C 13,9 C 11,7 C 99 % 1034,3 hPa 0,0 l/m 0 min 0 min 211 W/m 3,2 km/h (1 Bft) 97,83 %
22.02.2019 13:54 11,6 C 13,9 C 11,7 C 99 % 1034,3 hPa 0,0 l/m 0 min 0 min 196 W/m 6,4 km/h (2 Bft) 100,00 %
22.02.2019 13:56 11,7 C 13,3 C 11,7 C 99 % 1034,2 hPa 0,0 l/m 0 min 0 min 172 W/m 6,4 km/h (2 Bft) 97,87 %
22.02.2019 13:58 11,7 C 13,3 C 11,7 C 99 % 1034,2 hPa 0,0 l/m 0 min 0 min 170 W/m 12,9 km/h (3 Bft) 97,87 %
22.02.2019 14:00 11,7 C 13,3 C 11,7 C 99 % 1034,3 hPa 0,0 l/m 0 min 0 min 165 W/m 6,4 km/h (2 Bft) 97,92 %
22.02.2019 14:02 11,7 C 13,3 C 11,7 C 99 % 1034,3 hPa 0,0 l/m 0 min 0 min 147 W/m 9,7 km/h (2 Bft) 97,87 %
22.02.2019 14:04 11,7 C 13,3 C 11,7 C 99 % 1034,4 hPa 0,0 l/m 0 min 0 min 151 W/m 9,7 km/h (2 Bft) 100,00 %
22.02.2019 14:06 11,7 C 12,8 C 11,1 C 99 % 1034,4 hPa 0,0 l/m 0 min 0 min 124 W/m 3,2 km/h (1 Bft) 98,31 %
22.02.2019 14:08 11,7 C 12,8 C 11,1 C 99 % 1034,4 hPa 0,0 l/m 0 min 0 min 100 W/m 9,7 km/h (2 Bft) 97,14 %
22.02.2019 14:10 11,7 C 12,8 C 11,1 C 99 % 1034,4 hPa 0,0 l/m 0 min 0 min 118 W/m 6,4 km/h (2 Bft) 100,00 %
22.02.2019 14:12 11,7 C 12,8 C 11,1 C 99 % 1034,4 hPa 0,0 l/m 0 min 0 min 155 W/m 3,2 km/h (1 Bft) 97,87 %
22.02.2019 14:14 11,7 C 13,3 C 11,7 C 99 % 1034,4 hPa 0,0 l/m 0 min 0 min 194 W/m 6,4 km/h (2 Bft) 100,00 %
22.02.2019 14:16 11,7 C 13,9 C 11,7 C 99 % 1034,4 hPa 0,0 l/m 0 min 0 min 199 W/m 6,4 km/h (2 Bft) 97,83 %
22.02.2019 14:18 11,7 C 14,4 C 11,7 C 99 % 1034,4 hPa 0,0 l/m 0 min 0 min 207 W/m 3,2 km/h (1 Bft) 95,74 %
22.02.2019 14:20 11,8 C 16,7 C 11,7 C 99 % 1034,3 hPa 0,0 l/m 2 min 0 min 349 W/m 9,7 km/h (2 Bft) 100,00 %
22.02.2019 14:22 11,9 C 16,7 C 11,7 C 98 % 1034,2 hPa 0,0 l/m 2 min 0 min 450 W/m 9,7 km/h (2 Bft) 100,00 %
22.02.2019 14:24 11,9 C 17,2 C 11,7 C 98 % 1034,2 hPa 0,0 l/m 2 min 0 min 300 W/m 6,4 km/h (2 Bft) 100,00 %
22.02.2019 14:26 11,9 C 16,1 C 11,7 C 98 % 1034,3 hPa 0,0 l/m 0 min 0 min 193 W/m 6,4 km/h (2 Bft) 95,74 %
22.02.2019 14:28 12,0 C 15,6 C 11,7 C 98 % 1034,2 hPa 0,0 l/m 0 min 0 min 174 W/m 6,4 km/h (2 Bft) 97,83 %
22.02.2019 14:30 12,0 C 14,4 C 11,1 C 98 % 1034,3 hPa 0,0 l/m 0 min 0 min 152 W/m 9,7 km/h (2 Bft) 97,87 %
22.02.2019 14:32 12,0 C 14,4 C 11,1 C 98 % 1034,2 hPa 0,0 l/m 0 min 0 min 160 W/m 6,4 km/h (2 Bft) 95,74 %
22.02.2019 14:34 12,0 C 16,7 C 11,7 C 98 % 1034,2 hPa 0,0 l/m 2 min 0 min 248 W/m 3,2 km/h (1 Bft) 93,62 %
22.02.2019 14:36 12,1 C 18,3 C 12,2 C 98 % 1034,1 hPa 0,0 l/m 2 min 0 min 444 W/m 6,4 km/h (2 Bft) 96,55 %
22.02.2019 14:38 12,2 C 19,4 C 12,2 C 97 % 1034,2 hPa 0,0 l/m 2 min 0 min 442 W/m 6,4 km/h (2 Bft) 94,44 %
22.02.2019 14:40 12,3 C 20,0 C 12,8 C 97 % 1034,2 hPa 0,0 l/m 2 min 0 min 437 W/m 9,7 km/h (2 Bft) 95,65 %
22.02.2019 14:42 12,4 C 20,0 C 12,8 C 97 % 1034,3 hPa 0,0 l/m 2 min 0 min 424 W/m 9,7 km/h (2 Bft) 95,74 %
22.02.2019 14:44 12,4 C 18,3 C 12,2 C 97 % 1034,2 hPa 0,0 l/m 2 min 0 min 309 W/m 6,4 km/h (2 Bft) 97,87 %
22.02.2019 14:46 12,4 C 17,2 C 12,2 C 96 % 1034,2 hPa 0,0 l/m 2 min 0 min 251 W/m 3,2 km/h (1 Bft) 95,74 %
22.02.2019 14:48 12,5 C 16,7 C 12,2 C 96 % 1034,2 hPa 0,0 l/m 0 min 0 min 160 W/m 9,7 km/h (2 Bft) 95,74 %
22.02.2019 14:50 12,5 C 16,7 C 12,2 C 95 % 1034,2 hPa 0,0 l/m 0 min 0 min 167 W/m 6,4 km/h (2 Bft) 95,74 %
22.02.2019 14:52 12,6 C 16,1 C 12,2 C 94 % 1034,2 hPa 0,0 l/m 0 min 0 min 174 W/m 6,4 km/h (2 Bft) 95,65 %
22.02.2019 14:54 12,6 C 16,7 C 12,2 C 94 % 1034,1 hPa 0,0 l/m 2 min 0 min 210 W/m 6,4 km/h (2 Bft) 95,74 %
22.02.2019 14:56 12,7 C 16,7 C 12,2 C 93 % 1034,1 hPa 0,0 l/m 2 min 0 min 353 W/m 6,4 km/h (2 Bft) 95,74 %
22.02.2019 14:58 12,7 C 16,7 C 12,8 C 92 % 1034,1 hPa 0,0 l/m 2 min 0 min 353 W/m 3,2 km/h (1 Bft) 95,74 %
22.02.2019 15:00 12,7 C 16,1 C 12,8 C 91 % 1034,1 hPa 0,0 l/m 2 min 0 min 375 W/m 6,4 km/h (2 Bft) 95,74 %
22.02.2019 15:02 12,8 C 16,7 C 12,8 C 91 % 1034,1 hPa 0,0 l/m 2 min 0 min 390 W/m 6,4 km/h (2 Bft) 93,48 %
22.02.2019 15:04 12,8 C 16,7 C 12,8 C 89 % 1034,1 hPa 0,0 l/m 2 min 0 min 457 W/m 6,4 km/h (2 Bft) 93,62 %
22.02.2019 15:06 12,9 C 16,1 C 12,8 C 88 % 1034,1 hPa 0,0 l/m 2 min 0 min 465 W/m 9,7 km/h (2 Bft) 94,92 %
22.02.2019 15:08 12,9 C 15,6 C 12,8 C 87 % 1034,1 hPa 0,0 l/m 2 min 0 min 324 W/m 12,9 km/h (3 Bft) 100,00 %
22.02.2019 15:10 12,9 C 14,4 C 12,2 C 85 % 1034,1 hPa 0,0 l/m 2 min 0 min 316 W/m 19,3 km/h (3 Bft) 93,62 %
22.02.2019 15:12 12,9 C 13,9 C 12,2 C 83 % 1034,1 hPa 0,0 l/m 0 min 0 min 131 W/m 9,7 km/h (2 Bft) 95,74 %
22.02.2019 15:14 12,9 C 13,3 C 12,2 C 82 % 1034,1 hPa 0,0 l/m 0 min 0 min 119 W/m 9,7 km/h (2 Bft) 95,65 %
22.02.2019 15:16 12,9 C 12,8 C 12,2 C 81 % 1034,1 hPa 0,0 l/m 0 min 0 min 114 W/m 12,9 km/h (3 Bft) 93,62 %
22.02.2019 15:18 12,9 C 12,8 C 11,7 C 81 % 1034,1 hPa 0,0 l/m 0 min 0 min 97 W/m 6,4 km/h (2 Bft) 97,87 %
22.02.2019 15:20 12,9 C 12,8 C 11,7 C 81 % 1034,1 hPa 0,0 l/m 0 min 0 min 91 W/m 6,4 km/h (2 Bft) 95,74 %
22.02.2019 15:22 12,9 C 15,0 C 11,7 C 82 % 1034,1 hPa 0,0 l/m 2 min 0 min 201 W/m 6,4 km/h (2 Bft) 93,62 %
22.02.2019 15:24 13,1 C 16,7 C 11,7 C 83 % 1034,2 hPa 0,0 l/m 2 min 0 min 342 W/m 6,4 km/h (2 Bft) 93,62 %
22.02.2019 15:26 13,1 C 17,8 C 11,7 C 84 % 1034,2 hPa 0,0 l/m 2 min 0 min 347 W/m 6,4 km/h (2 Bft) 93,48 %
22.02.2019 15:28 13,2 C 18,9 C 11,7 C 84 % 1034,1 hPa 0,0 l/m 2 min 0 min 338 W/m 6,4 km/h (2 Bft) 97,87 %
22.02.2019 15:30 13,2 C 19,4 C 12,2 C 84 % 1034,2 hPa 0,0 l/m 2 min 0 min 325 W/m 9,7 km/h (2 Bft) 95,74 %
22.02.2019 15:32 13,3 C 18,9 C 12,2 C 84 % 1034,2 hPa 0,0 l/m 2 min 0 min 315 W/m 6,4 km/h (2 Bft) 95,74 %
22.02.2019 15:34 13,3 C 17,2 C 12,2 C 82 % 1034,2 hPa 0,0 l/m 2 min 0 min 239 W/m 9,7 km/h (2 Bft) 97,87 %
22.02.2019 15:36 13,3 C 15,6 C 12,2 C 81 % 1034,3 hPa 0,0 l/m 2 min 0 min 184 W/m 6,4 km/h (2 Bft) 96,55 %
22.02.2019 15:38 13,3 C 15,6 C 12,2 C 79 % 1034,3 hPa 0,0 l/m 2 min 0 min 303 W/m 9,7 km/h (2 Bft) 100,00 %
22.02.2019 15:40 13,3 C 15,0 C 12,2 C 79 % 1034,3 hPa 0,0 l/m 2 min 0 min 258 W/m 9,7 km/h (2 Bft) 97,87 %
22.02.2019 15:42 13,4 C 14,4 C 12,2 C 79 % 1034,3 hPa 0,0 l/m 0 min 0 min 127 W/m 9,7 km/h (2 Bft) 95,74 %
22.02.2019 15:44 13,3 C 13,9 C 12,2 C 79 % 1034,3 hPa 0,0 l/m 0 min 0 min 116 W/m 12,9 km/h (3 Bft) 97,87 %
22.02.2019 15:46 13,3 C 13,3 C 12,2 C 78 % 1034,3 hPa 0,0 l/m 0 min 0 min 117 W/m 9,7 km/h (2 Bft) 97,87 %
22.02.2019 15:48 13,3 C 13,3 C 12,2 C 78 % 1034,3 hPa 0,0 l/m 0 min 0 min 120 W/m 6,4 km/h (2 Bft) 97,87 %
22.02.2019 15:50 13,3 C 13,3 C 12,2 C 78 % 1034,3 hPa 0,0 l/m 0 min 0 min 121 W/m 6,4 km/h (2 Bft) 97,83 %
22.02.2019 15:52 13,3 C 13,9 C 12,2 C 78 % 1034,3 hPa 0,0 l/m 0 min 0 min 122 W/m 6,4 km/h (2 Bft) 95,74 %
22.02.2019 15:54 13,3 C 13,9 C 12,2 C 78 % 1034,3 hPa 0,0 l/m 2 min 0 min 165 W/m 6,4 km/h (2 Bft) 97,87 %
22.02.2019 15:56 13,2 C 13,9 C 11,7 C 78 % 1034,3 hPa 0,0 l/m 0 min 0 min 106 W/m 6,4 km/h (2 Bft) 97,87 %
22.02.2019 15:58 13,2 C 13,9 C 11,7 C 78 % 1034,3 hPa 0,0 l/m 0 min 0 min 95 W/m 6,4 km/h (2 Bft) 95,74 %
22.02.2019 16:00 13,2 C 13,3 C 11,7 C 78 % 1034,3 hPa 0,0 l/m 0 min 0 min 98 W/m 9,7 km/h (2 Bft) 95,74 %
22.02.2019 16:02 13,2 C 13,3 C 11,7 C 78 % 1034,3 hPa 0,0 l/m 0 min 0 min 104 W/m 6,4 km/h (2 Bft) 97,83 %
22.02.2019 16:04 13,2 C 13,3 C 11,7 C 79 % 1034,2 hPa 0,0 l/m 0 min 0 min 131 W/m 3,2 km/h (1 Bft) 100,00 %
22.02.2019 16:06 13,2 C 13,9 C 11,7 C 79 % 1034,3 hPa 0,0 l/m 2 min 0 min 168 W/m 3,2 km/h (1 Bft) 98,31 %
22.02.2019 16:08 13,2 C 14,4 C 12,2 C 79 % 1034,3 hPa 0,0 l/m 2 min 0 min 169 W/m 6,4 km/h (2 Bft) 100,00 %
22.02.2019 16:10 13,2 C 14,4 C 12,2 C 79 % 1034,3 hPa 0,0 l/m 2 min 0 min 149 W/m 6,4 km/h (2 Bft) 100,00 %
22.02.2019 16:12 13,1 C 14,4 C 12,2 C 79 % 1034,4 hPa 0,0 l/m 2 min 0 min 136 W/m 6,4 km/h (2 Bft) 97,83 %
22.02.2019 16:14 13,1 C 13,9 C 11,7 C 78 % 1034,4 hPa 0,0 l/m 0 min 0 min 103 W/m 6,4 km/h (2 Bft) 100,00 %
22.02.2019 16:16 13,1 C 13,3 C 11,7 C 78 % 1034,4 hPa 0,0 l/m 0 min 0 min 85 W/m 6,4 km/h (2 Bft) 97,87 %
22.02.2019 16:18 13,1 C 13,3 C 11,7 C 77 % 1034,4 hPa 0,0 l/m 0 min 0 min 77 W/m 9,7 km/h (2 Bft) 100,00 %
22.02.2019 16:20 13,1 C 12,8 C 11,7 C 77 % 1034,4 hPa 0,0 l/m 0 min 0 min 63 W/m 6,4 km/h (2 Bft) 97,87 %
22.02.2019 16:22 13,1 C 12,8 C 11,7 C 78 % 1034,4 hPa 0,0 l/m 0 min 0 min 54 W/m 6,4 km/h (2 Bft) 100,00 %
22.02.2019 16:24 13,0 C 12,2 C 11,1 C 78 % 1034,3 hPa 0,0 l/m 0 min 0 min 54 W/m 9,7 km/h (2 Bft) 100,00 %
22.02.2019 16:26 13,0 C 12,2 C 11,1 C 78 % 1034,4 hPa 0,0 l/m 0 min 0 min 58 W/m 9,7 km/h (2 Bft) 100,00 %
22.02.2019 16:28 12,9 C 12,2 C 11,1 C 78 % 1034,4 hPa 0,0 l/m 0 min 0 min 60 W/m 6,4 km/h (2 Bft) 97,87 %
22.02.2019 16:30 12,9 C 12,2 C 11,1 C 78 % 1034,4 hPa 0,0 l/m 0 min 0 min 58 W/m 9,7 km/h (2 Bft) 100,00 %
22.02.2019 16:32 12,8 C 11,7 C 11,1 C 78 % 1034,3 hPa 0,0 l/m 0 min 0 min 56 W/m 6,4 km/h (2 Bft) 97,87 %
22.02.2019 16:34 12,8 C 11,7 C 11,1 C 78 % 1034,5 hPa 0,0 l/m 0 min 0 min 56 W/m 9,7 km/h (2 Bft) 97,87 %
22.02.2019 16:36 12,7 C 11,7 C 10,6 C 78 % 1034,5 hPa 0,0 l/m 0 min 0 min 60 W/m 6,4 km/h (2 Bft) 93,10 %
22.02.2019 16:38 12,7 C 11,7 C 10,6 C 78 % 1034,6 hPa 0,0 l/m 0 min 0 min 66 W/m 6,4 km/h (2 Bft) 97,14 %
22.02.2019 16:40 12,7 C 11,7 C 10,6 C 78 % 1034,5 hPa 0,0 l/m 0 min 0 min 70 W/m 3,2 km/h (1 Bft) 97,87 %
22.02.2019 16:42 12,7 C 11,7 C 10,6 C 78 % 1034,4 hPa 0,0 l/m 0 min 0 min 72 W/m 6,4 km/h (2 Bft) 100,00 %
22.02.2019 16:44 12,6 C 11,7 C 10,6 C 78 % 1034,4 hPa 0,0 l/m 0 min 0 min 72 W/m 3,2 km/h (1 Bft) 100,00 %
22.02.2019 16:46 12,6 C 11,7 C 10,6 C 78 % 1034,4 hPa 0,0 l/m 0 min 0 min 71 W/m 6,4 km/h (2 Bft) 97,87 %
22.02.2019 16:48 12,5 C 11,7 C 10,6 C 79 % 1034,4 hPa 0,0 l/m 0 min 0 min 69 W/m 3,2 km/h (1 Bft) 95,65 %
22.02.2019 16:50 12,4 C 11,7 C 10,6 C 79 % 1034,3 hPa 0,0 l/m 0 min 0 min 62 W/m 6,4 km/h (2 Bft) 95,74 %
22.02.2019 16:52 12,4 C 11,7 C 10,6 C 78 % 1034,3 hPa 0,0 l/m 0 min 0 min 59 W/m 6,4 km/h (2 Bft) 97,87 %
22.02.2019 16:54 12,4 C 11,7 C 10,6 C 78 % 1034,4 hPa 0,0 l/m 0 min 0 min 62 W/m 6,4 km/h (2 Bft) 100,00 %
22.02.2019 16:56 12,3 C 11,7 C 10,6 C 78 % 1034,4 hPa 0,0 l/m 0 min 0 min 59 W/m 9,7 km/h (2 Bft) 95,74 %
22.02.2019 16:58 12,3 C 11,7 C 10,6 C 78 % 1034,3 hPa 0,0 l/m 0 min 0 min 56 W/m 6,4 km/h (2 Bft) 100,00 %
22.02.2019 17:00 12,3 C 11,7 C 10,0 C 78 % 1034,5 hPa 0,0 l/m 0 min 0 min 57 W/m 3,2 km/h (1 Bft) 97,83 %
22.02.2019 17:02 12,2 C 11,7 C 10,0 C 79 % 1034,5 hPa 0,0 l/m 0 min 0 min 59 W/m 6,4 km/h (2 Bft) 100,00 %
22.02.2019 17:04 12,2 C 11,7 C 10,0 C 79 % 1034,5 hPa 0,0 l/m 0 min 0 min 56 W/m 3,2 km/h (1 Bft) 97,87 %
22.02.2019 17:06 12,2 C 11,7 C 10,0 C 79 % 1034,5 hPa 0,0 l/m 0 min 0 min 54 W/m 3,2 km/h (1 Bft) 100,00 %
22.02.2019 17:08 12,1 C 11,1 C 10,0 C 79 % 1034,6 hPa 0,0 l/m 0 min 0 min 50 W/m 0,0 km/h (0 Bft) 100,00 %
22.02.2019 17:10 12,1 C 11,1 C 10,0 C 79 % 1034,6 hPa 0,0 l/m 0 min 0 min 47 W/m 0,0 km/h (0 Bft) 100,00 %
22.02.2019 17:12 12,1 C 11,1 C 10,0 C 79 % 1034,6 hPa 0,0 l/m 0 min 0 min 45 W/m 0,0 km/h (0 Bft) 95,74 %
22.02.2019 17:14 12,1 C 11,1 C 9,4 C 80 % 1034,6 hPa 0,0 l/m 0 min 0 min 44 W/m 0,0 km/h (0 Bft) 97,87 %
22.02.2019 17:16 12,1 C 11,1 C 9,4 C 80 % 1034,6 hPa 0,0 l/m 0 min 0 min 44 W/m 0,0 km/h (0 Bft) 100,00 %
22.02.2019 17:18 12,0 C 11,1 C 9,4 C 80 % 1034,6 hPa 0,0 l/m 0 min 0 min 40 W/m 0,0 km/h (0 Bft) 95,74 %
22.02.2019 17:20 12,0 C 10,6 C 9,4 C 80 % 1034,7 hPa 0,0 l/m 0 min 0 min 34 W/m 0,0 km/h (0 Bft) 97,87 %
22.02.2019 17:22 11,9 C 10,6 C 9,4 C 80 % 1034,7 hPa 0,0 l/m 0 min 0 min 33 W/m 0,0 km/h (0 Bft) 95,65 %
22.02.2019 17:24 11,9 C 10,6 C 9,4 C 80 % 1034,7 hPa 0,0 l/m 0 min 0 min 33 W/m 0,0 km/h (0 Bft) 100,00 %
22.02.2019 17:26 11,9 C 10,6 C 9,4 C 80 % 1034,7 hPa 0,0 l/m 0 min 0 min 31 W/m 0,0 km/h (0 Bft) 95,74 %
22.02.2019 17:28 11,8 C 10,6 C 9,4 C 80 % 1034,7 hPa 0,0 l/m 0 min 0 min 28 W/m 6,4 km/h (2 Bft) 93,62 %
22.02.2019 17:30 11,8 C 10,6 C 9,4 C 80 % 1034,6 hPa 0,0 l/m 0 min 0 min 26 W/m 3,2 km/h (1 Bft) 93,62 %
22.02.2019 17:32 11,8 C 10,6 C 9,4 C 80 % 1034,6 hPa 0,0 l/m 0 min 0 min 24 W/m 6,4 km/h (2 Bft) 95,74 %
22.02.2019 17:34 11,7 C 10,0 C 8,9 C 80 % 1034,6 hPa 0,0 l/m 0 min 0 min 23 W/m 6,4 km/h (2 Bft) 95,65 %
22.02.2019 17:36 11,7 C 10,0 C 8,9 C 80 % 1034,6 hPa 0,0 l/m 0 min 0 min 21 W/m 3,2 km/h (1 Bft) 93,62 %
22.02.2019 17:38 11,7 C 10,0 C 8,9 C 81 % 1034,6 hPa 0,0 l/m 0 min 0 min 19 W/m 3,2 km/h (1 Bft) 95,74 %
22.02.2019 17:40 11,6 C 10,0 C 8,9 C 81 % 1034,6 hPa 0,0 l/m 0 min 0 min 18 W/m 3,2 km/h (1 Bft) 95,74 %
22.02.2019 17:42 11,6 C 9,4 C 8,9 C 81 % 1034,6 hPa 0,0 l/m 0 min 0 min 16 W/m 3,2 km/h (1 Bft) 97,87 %
22.02.2019 17:44 11,5 C 9,4 C 8,3 C 81 % 1034,6 hPa 0,0 l/m 0 min 0 min 15 W/m 3,2 km/h (1 Bft) 95,74 %
22.02.2019 17:46 11,4 C 9,4 C 8,3 C 81 % 1034,6 hPa 0,0 l/m 0 min 0 min 14 W/m 3,2 km/h (1 Bft) 95,65 %
22.02.2019 17:48 11,4 C 9,4 C 8,3 C 81 % 1034,6 hPa 0,0 l/m 0 min 0 min 12 W/m 0,0 km/h (0 Bft) 93,62 %
22.02.2019 17:50 11,4 C 9,4 C 8,3 C 81 % 1034,7 hPa 0,0 l/m 0 min 0 min 11 W/m 0,0 km/h (0 Bft) 95,74 %
22.02.2019 17:52 11,3 C 9,4 C 7,8 C 81 % 1034,7 hPa 0,0 l/m 0 min 0 min 10 W/m 6,4 km/h (2 Bft) 93,62 %
22.02.2019 17:54 11,3 C 9,4 C 7,8 C 81 % 1034,7 hPa 0,0 l/m 0 min 0 min 8 W/m 3,2 km/h (1 Bft) 93,62 %
22.02.2019 17:56 11,2 C 9,4 C 7,8 C 81 % 1034,7 hPa 0,0 l/m 0 min 0 min 7 W/m 3,2 km/h (1 Bft) 93,48 %
22.02.2019 17:58 11,2 C 8,9 C 7,8 C 81 % 1034,7 hPa 0,0 l/m 0 min 0 min 5 W/m 3,2 km/h (1 Bft) 93,62 %
22.02.2019 18:00 11,1 C 8,9 C 7,8 C 81 % 1034,7 hPa 0,0 l/m 0 min 0 min 3 W/m 3,2 km/h (1 Bft) 95,74 %
22.02.2019 18:02 11,1 C 8,9 C 7,8 C 81 % 1034,7 hPa 0,0 l/m 0 min 0 min 0 W/m 0,0 km/h (0 Bft) 93,62 %
22.02.2019 18:04 11,0 C 8,9 C 7,2 C 81 % 1034,8 hPa 0,0 l/m 0 min 0 min 0 W/m 3,2 km/h (1 Bft) 89,36 %
22.02.2019 18:08 10,8 C 8,3 C 7,2 C 81 % 1034,8 hPa 0,0 l/m 0 min 0 min 0 W/m 0,0 km/h (0 Bft) 93,62 %
22.02.2019 18:10 10,8 C 8,3 C 7,2 C 82 % 1034,8 hPa 0,0 l/m 0 min 0 min 0 W/m 0,0 km/h (0 Bft) 84,78 %
22.02.2019 18:12 10,7 C 8,3 C 7,2 C 82 % 1034,8 hPa 0,0 l/m 0 min 0 min 0 W/m 0,0 km/h (0 Bft) 85,11 %
22.02.2019 18:14 10,7 C 8,3 C 7,2 C 82 % 1034,9 hPa 0,0 l/m 0 min 0 min 0 W/m 0,0 km/h (0 Bft) 80,85 %
22.02.2019 18:16 10,6 C 7,8 C 6,7 C 82 % 1035,0 hPa 0,0 l/m 0 min 0 min 0 W/m 0,0 km/h (0 Bft) 76,60 %
22.02.2019 18:18 10,5 C 7,8 C 6,7 C 82 % 1035,0 hPa 0,0 l/m 0 min 0 min 0 W/m 0,0 km/h (0 Bft) 80,85 %
22.02.2019 18:20 10,4 C 7,8 C 6,7 C 82 % 1034,9 hPa 0,0 l/m 0 min 0 min 0 W/m 0,0 km/h (0 Bft) 78,26 %
22.02.2019 18:22 10,4 C 7,8 C 6,7 C 82 % 1035,0 hPa 0,0 l/m 0 min 0 min 0 W/m 0,0 km/h (0 Bft) 89,36 %
22.02.2019 18:24 10,3 C 7,8 C 6,7 C 82 % 1034,9 hPa 0,0 l/m 0 min 0 min 0 W/m 0,0 km/h (0 Bft) 87,23 %
22.02.2019 18:26 10,2 C 7,8 C 6,7 C 83 % 1034,9 hPa 0,0 l/m 0 min 0 min 0 W/m 0,0 km/h (0 Bft) 87,23 %
22.02.2019 18:28 10,2 C 7,8 C 6,7 C 83 % 1034,9 hPa 0,0 l/m 0 min 0 min 0 W/m 0,0 km/h (0 Bft) 93,62 %
22.02.2019 18:30 10,1 C 7,8 C 6,1 C 83 % 1034,9 hPa 0,0 l/m 0 min 0 min 0 W/m 0,0 km/h (0 Bft) 95,74 %
22.02.2019 18:32 10,0 C 7,8 C 6,1 C 83 % 1034,9 hPa 0,0 l/m 0 min 0 min 0 W/m 0,0 km/h (0 Bft) 91,30 %
22.02.2019 18:34 9,9 C 7,8 C 6,1 C 83 % 1035,0 hPa 0,0 l/m 0 min 0 min 0 W/m 3,2 km/h (1 Bft) 93,62 %
22.02.2019 18:36 9,9 C 7,8 C 6,1 C 83 % 1035,0 hPa 0,0 l/m 0 min 0 min 0 W/m 3,2 km/h (1 Bft) 93,62 %
22.02.2019 18:38 9,8 C 7,8 C 6,1 C 84 % 1035,0 hPa 0,0 l/m 0 min 0 min 0 W/m 0,0 km/h (0 Bft) 97,87 %
22.02.2019 18:40 9,8 C 7,8 C 6,1 C 84 % 1035,1 hPa 0,0 l/m 0 min 0 min 0 W/m 0,0 km/h (0 Bft) 97,87 %
22.02.2019 18:42 9,7 C 7,2 C 6,1 C 84 % 1035,2 hPa 0,0 l/m 0 min 0 min 0 W/m 0,0 km/h (0 Bft) 97,87 %
22.02.2019 18:44 9,7 C 7,2 C 6,1 C 84 % 1035,1 hPa 0,0 l/m 0 min 0 min 0 W/m 0,0 km/h (0 Bft) 95,65 %
22.02.2019 18:46 9,6 C 7,2 C 6,1 C 84 % 1035,0 hPa 0,0 l/m 0 min 0 min 0 W/m 0,0 km/h (0 Bft) 97,87 %
22.02.2019 18:48 9,6 C 7,2 C 6,1 C 84 % 1035,1 hPa 0,0 l/m 0 min 0 min 0 W/m 0,0 km/h (0 Bft) 95,74 %
22.02.2019 18:50 9,5 C 7,8 C 6,1 C 84 % 1035,1 hPa 0,0 l/m 0 min 0 min 0 W/m 3,2 km/h (1 Bft) 95,74 %
22.02.2019 18:52 9,4 C 7,8 C 6,1 C 84 % 1035,1 hPa 0,0 l/m 0 min 0 min 0 W/m 3,2 km/h (1 Bft) 95,74 %
22.02.2019 18:54 9,4 C 7,8 C 6,1 C 85 % 1035,0 hPa 0,0 l/m 0 min 0 min 0 W/m 3,2 km/h (1 Bft) 95,74 %
22.02.2019 18:56 9,3 C 7,8 C 6,1 C 85 % 1035,1 hPa 0,0 l/m 0 min 0 min 0 W/m 3,2 km/h (1 Bft) 97,83 %
22.02.2019 18:58 9,3 C 7,8 C 6,1 C 85 % 1035,0 hPa 0,0 l/m 0 min 0 min 0 W/m 3,2 km/h (1 Bft) 97,87 %
22.02.2019 19:00 9,2 C 7,8 C 6,1 C 85 % 1035,0 hPa 0,0 l/m 0 min 0 min 0 W/m 3,2 km/h (1 Bft) 97,87 %
22.02.2019 19:02 9,2 C 7,8 C 6,1 C 85 % 1035,1 hPa 0,0 l/m 0 min 0 min 0 W/m 3,2 km/h (1 Bft) 95,74 %
22.02.2019 19:04 9,2 C 7,8 C 6,1 C 86 % 1035,2 hPa 0,0 l/m 0 min 0 min 0 W/m 6,4 km/h (2 Bft) 97,92 %
22.02.2019 19:06 9,1 C 7,8 C 6,1 C 86 % 1035,2 hPa 0,0 l/m 0 min 0 min 0 W/m 6,4 km/h (2 Bft) 97,87 %
22.02.2019 19:08 9,1 C 7,2 C 6,1 C 86 % 1035,1 hPa 0,0 l/m 0 min 0 min 0 W/m 3,2 km/h (1 Bft) 100,00 %
22.02.2019 19:10 9,1 C 7,8 C 6,7 C 86 % 1035,2 hPa 0,0 l/m 0 min 0 min 0 W/m 3,2 km/h (1 Bft) 100,00 %
22.02.2019 19:12 9,0 C 7,8 C 6,7 C 86 % 1035,2 hPa 0,0 l/m 0 min 0 min 0 W/m 3,2 km/h (1 Bft) 100,00 %
22.02.2019 19:14 8,9 C 7,8 C 6,7 C 86 % 1035,2 hPa 0,0 l/m 0 min 0 min 0 W/m 3,2 km/h (1 Bft) 97,87 %
22.02.2019 19:16 8,9 C 7,8 C 6,7 C 86 % 1035,2 hPa 0,0 l/m 0 min 0 min 0 W/m 3,2 km/h (1 Bft) 93,62 %
22.02.2019 19:18 8,9 C 7,8 C 6,7 C 87 % 1035,1 hPa 0,0 l/m 0 min 0 min 0 W/m 3,2 km/h (1 Bft) 91,49 %
22.02.2019 19:20 8,9 C 7,2 C 6,7 C 87 % 1035,1 hPa 0,0 l/m 0 min 0 min 0 W/m 0,0 km/h (0 Bft) 91,49 %
22.02.2019 19:22 8,8 C 7,2 C 6,1 C 87 % 1035,1 hPa 0,0 l/m 0 min 0 min 0 W/m 0,0 km/h (0 Bft) 95,74 %
22.02.2019 19:24 8,8 C 7,2 C 6,1 C 87 % 1035,1 hPa 0,0 l/m 0 min 0 min 0 W/m 3,2 km/h (1 Bft) 95,65 %
22.02.2019 19:26 8,8 C 7,2 C 6,1 C 87 % 1035,0 hPa 0,0 l/m 0 min 0 min 0 W/m 6,4 km/h (2 Bft) 95,74 %
22.02.2019 19:28 8,8 C 7,2 C 6,1 C 87 % 1035,1 hPa 0,0 l/m 0 min 0 min 0 W/m 3,2 km/h (1 Bft) 97,87 %
22.02.2019 19:30 8,7 C 7,2 C 6,1 C 87 % 1035,1 hPa 0,0 l/m 0 min 0 min 0 W/m 6,4 km/h (2 Bft) 97,87 %
22.02.2019 19:32 8,7 C 7,2 C 6,1 C 87 % 1035,1 hPa 0,0 l/m 0 min 0 min 0 W/m 6,4 km/h (2 Bft) 91,49 %
22.02.2019 19:34 8,7 C 7,2 C 6,1 C 87 % 1035,1 hPa 0,0 l/m 0 min 0 min 0 W/m 6,4 km/h (2 Bft) 89,13 %
22.02.2019 19:36 8,7 C 7,2 C 6,1 C 87 % 1035,1 hPa 0,0 l/m 0 min 0 min 0 W/m 3,2 km/h (1 Bft) 97,87 %
22.02.2019 19:38 8,6 C 7,2 C 6,1 C 87 % 1035,2 hPa 0,0 l/m 0 min 0 min 0 W/m 6,4 km/h (2 Bft) 97,87 %
22.02.2019 19:40 8,6 C 7,2 C 6,1 C 87 % 1035,1 hPa 0,0 l/m 0 min 0 min 0 W/m 3,2 km/h (1 Bft) 95,74 %
22.02.2019 19:42 8,6 C 7,2 C 6,1 C 87 % 1035,1 hPa 0,0 l/m 0 min 0 min 0 W/m 3,2 km/h (1 Bft) 87,23 %
22.02.2019 19:44 8,6 C 7,2 C 6,1 C 88 % 1035,2 hPa 0,0 l/m 0 min 0 min 0 W/m 0,0 km/h (0 Bft) 91,49 %
22.02.2019 19:46 8,5 C 7,2 C 6,1 C 88 % 1035,1 hPa 0,0 l/m 0 min 0 min 0 W/m 6,4 km/h (2 Bft) 87,23 %
22.02.2019 19:48 8,5 C 7,8 C 6,1 C 88 % 1035,1 hPa 0,0 l/m 0 min 0 min 0 W/m 6,4 km/h (2 Bft) 95,74 %
22.02.2019 19:50 8,4 C 7,2 C 6,1 C 88 % 1035,1 hPa 0,0 l/m 0 min 0 min 0 W/m 6,4 km/h (2 Bft) 91,49 %
22.02.2019 19:52 8,4 C 7,2 C 6,1 C 88 % 1035,0 hPa 0,0 l/m 0 min 0 min 0 W/m 3,2 km/h (1 Bft) 95,65 %
22.02.2019 19:54 8,4 C 7,2 C 6,1 C 88 % 1034,8 hPa 0,0 l/m 0 min 0 min 0 W/m 3,2 km/h (1 Bft) 91,49 %
22.02.2019 19:56 8,4 C 7,2 C 6,1 C 88 % 1034,8 hPa 0,0 l/m 0 min 0 min 0 W/m 6,4 km/h (2 Bft) 97,87 %
22.02.2019 19:58 8,4 C 7,8 C 6,1 C 88 % 1034,7 hPa 0,0 l/m 0 min 0 min 0 W/m 6,4 km/h (2 Bft) 95,74 %
22.02.2019 20:00 8,4 C 7,8 C 6,7 C 88 % 1034,7 hPa 0,0 l/m 0 min 0 min 0 W/m 6,4 km/h (2 Bft) 93,62 %
22.02.2019 20:02 8,4 C 7,8 C 6,7 C 88 % 1034,7 hPa 0,0 l/m 0 min 0 min 0 W/m 3,2 km/h (1 Bft) 93,62 %
22.02.2019 20:04 8,4 C 7,8 C 6,7 C 88 % 1034,8 hPa 0,0 l/m 0 min 0 min 0 W/m 3,2 km/h (1 Bft) 93,62 %
22.02.2019 20:06 8,4 C 7,8 C 6,7 C 88 % 1034,8 hPa 0,0 l/m 0 min 0 min 0 W/m 3,2 km/h (1 Bft) 97,83 %
22.02.2019 20:08 8,4 C 7,8 C 6,1 C 88 % 1034,8 hPa 0,0 l/m 0 min 0 min 0 W/m 6,4 km/h (2 Bft) 100,00 %
22.02.2019 20:10 8,4 C 7,8 C 6,7 C 88 % 1034,9 hPa 0,0 l/m 0 min 0 min 0 W/m 6,4 km/h (2 Bft) 87,23 %
22.02.2019 20:12 8,3 C 7,8 C 6,1 C 88 % 1034,9 hPa 0,0 l/m 0 min 0 min 0 W/m 6,4 km/h (2 Bft) 93,62 %
22.02.2019 20:14 8,3 C 7,2 C 6,1 C 89 % 1035,0 hPa 0,0 l/m 0 min 0 min 0 W/m 6,4 km/h (2 Bft) 95,74 %
22.02.2019 20:16 8,3 C 7,2 C 6,1 C 89 % 1035,2 hPa 0,0 l/m 0 min 0 min 0 W/m 6,4 km/h (2 Bft) 93,62 %
22.02.2019 20:18 8,3 C 7,2 C 6,1 C 89 % 1035,3 hPa 0,0 l/m 0 min 0 min 0 W/m 3,2 km/h (1 Bft) 100,00 %
22.02.2019 20:20 8,3 C 7,2 C 6,1 C 88 % 1035,3 hPa 0,0 l/m 0 min 0 min 0 W/m 3,2 km/h (1 Bft) 100,00 %
22.02.2019 20:22 8,3 C 7,2 C 6,1 C 88 % 1035,3 hPa 0,0 l/m 0 min 0 min 0 W/m 3,2 km/h (1 Bft) 100,00 %
22.02.2019 20:24 8,3 C 7,2 C 6,1 C 88 % 1035,3 hPa 0,0 l/m 0 min 0 min 0 W/m 3,2 km/h (1 Bft) 100,00 %
22.02.2019 20:26 8,3 C 7,2 C 6,1 C 88 % 1035,3 hPa 0,0 l/m 0 min 0 min 0 W/m 0,0 km/h (0 Bft) 97,87 %
22.02.2019 20:28 8,3 C 6,7 C 5,6 C 88 % 1035,3 hPa 0,0 l/m 0 min 0 min 0 W/m 0,0 km/h (0 Bft) 100,00 %
22.02.2019 20:30 8,2 C 6,7 C 5,6 C 88 % 1035,3 hPa 0,0 l/m 0 min 0 min 0 W/m 0,0 km/h (0 Bft) 100,00 %
22.02.2019 20:32 8,2 C 6,7 C 5,6 C 88 % 1035,4 hPa 0,0 l/m 0 min 0 min 0 W/m 0,0 km/h (0 Bft) 97,87 %
22.02.2019 20:34 8,2 C 6,7 C 5,6 C 88 % 1035,4 hPa 0,0 l/m 0 min 0 min 0 W/m 0,0 km/h (0 Bft) 100,00 %
22.02.2019 20:36 8,2 C 6,7 C 5,6 C 88 % 1035,4 hPa 0,0 l/m 0 min 0 min 0 W/m 0,0 km/h (0 Bft) 100,00 %
22.02.2019 20:38 8,2 C 6,1 C 5,0 C 88 % 1035,4 hPa 0,0 l/m 0 min 0 min 0 W/m 0,0 km/h (0 Bft) 100,00 %
22.02.2019 20:40 8,2 C 6,1 C 5,0 C 88 % 1035,4 hPa 0,0 l/m 0 min 0 min 0 W/m 0,0 km/h (0 Bft) 100,00 %
22.02.2019 20:42 8,1 C 6,1 C 5,0 C 88 % 1035,5 hPa 0,0 l/m 0 min 0 min 0 W/m 0,0 km/h (0 Bft) 97,87 %
22.02.2019 20:44 8,1 C 6,1 C 5,0 C 88 % 1035,5 hPa 0,0 l/m 0 min 0 min 0 W/m 0,0 km/h (0 Bft) 100,00 %
22.02.2019 20:46 8,1 C 6,1 C 5,0 C 88 % 1035,5 hPa 0,0 l/m 0 min 0 min 0 W/m 0,0 km/h (0 Bft) 100,00 %
22.02.2019 20:48 8,0 C 6,1 C 5,0 C 88 % 1035,6 hPa 0,0 l/m 0 min 0 min 0 W/m 0,0 km/h (0 Bft) 100,00 %
22.02.2019 20:50 7,9 C 6,1 C 5,0 C 88 % 1035,6 hPa 0,0 l/m 0 min 0 min 0 W/m 0,0 km/h (0 Bft) 100,00 %
22.02.2019 20:52 7,9 C 6,1 C 5,0 C 88 % 1035,6 hPa 0,0 l/m 0 min 0 min 0 W/m 0,0 km/h (0 Bft) 100,00 %
22.02.2019 20:54 7,9 C 6,1 C 4,4 C 88 % 1035,6 hPa 0,0 l/m 0 min 0 min 0 W/m 3,2 km/h (1 Bft) 100,00 %
22.02.2019 20:56 7,8 C 6,1 C 4,4 C 88 % 1035,7 hPa 0,0 l/m 0 min 0 min 0 W/m 0,0 km/h (0 Bft) 100,00 %
22.02.2019 20:58 7,8 C 6,1 C 4,4 C 88 % 1035,7 hPa 0,0 l/m 0 min 0 min 0 W/m 6,4 km/h (2 Bft) 100,00 %
22.02.2019 21:00 7,8 C 6,1 C 4,4 C 88 % 1035,6 hPa 0,0 l/m 0 min 0 min 0 W/m 3,2 km/h (1 Bft) 100,00 %
22.02.2019 21:02 7,7 C 6,7 C 5,0 C 88 % 1035,6 hPa 0,0 l/m 0 min 0 min 0 W/m 3,2 km/h (1 Bft) 97,87 %
22.02.2019 21:04 7,7 C 6,7 C 5,0 C 88 % 1035,5 hPa 0,0 l/m 0 min 0 min 0 W/m 0,0 km/h (0 Bft) 100,00 %
22.02.2019 21:06 7,7 C 6,1 C 5,0 C 88 % 1035,5 hPa 0,0 l/m 0 min 0 min 0 W/m 0,0 km/h (0 Bft) 97,87 %
22.02.2019 21:08 7,6 C 6,1 C 5,0 C 88 % 1035,5 hPa 0,0 l/m 0 min 0 min 0 W/m 0,0 km/h (0 Bft) 100,00 %
22.02.2019 21:10 7,6 C 6,1 C 5,0 C 88 % 1035,5 hPa 0,0 l/m 0 min 0 min 0 W/m 3,2 km/h (1 Bft) 100,00 %
22.02.2019 21:12 7,6 C 6,1 C 5,0 C 89 % 1035,5 hPa 0,0 l/m 0 min 0 min 0 W/m 3,2 km/h (1 Bft) 100,00 %
22.02.2019 21:14 7,6 C 6,1 C 5,0 C 88 % 1035,5 hPa 0,0 l/m 0 min 0 min 0 W/m 6,4 km/h (2 Bft) 97,87 %
22.02.2019 21:16 7,5 C 6,1 C 5,0 C 88 % 1035,5 hPa 0,0 l/m 0 min 0 min 0 W/m 3,2 km/h (1 Bft) 97,83 %
22.02.2019 21:18 7,5 C 6,1 C 5,0 C 89 % 1035,6 hPa 0,0 l/m 0 min 0 min 0 W/m 3,2 km/h (1 Bft) 97,87 %
22.02.2019 21:20 7,5 C 6,1 C 5,0 C 89 % 1035,6 hPa 0,0 l/m 0 min 0 min 0 W/m 3,2 km/h (1 Bft) 93,62 %
22.02.2019 21:22 7,4 C 6,1 C 5,0 C 89 % 1035,6 hPa 0,0 l/m 0 min 0 min 0 W/m 3,2 km/h (1 Bft) 95,74 %
22.02.2019 21:24 7,4 C 6,1 C 5,0 C 89 % 1035,6 hPa 0,0 l/m 0 min 0 min 0 W/m 6,4 km/h (2 Bft) 93,62 %
22.02.2019 21:26 7,4 C 6,1 C 5,0 C 89 % 1035,6 hPa 0,0 l/m 0 min 0 min 0 W/m 3,2 km/h (1 Bft) 91,30 %
22.02.2019 21:28 7,4 C 6,1 C 5,0 C 89 % 1035,6 hPa 0,0 l/m 0 min 0 min 0 W/m 6,4 km/h (2 Bft) 93,62 %
22.02.2019 21:30 7,4 C 6,1 C 5,0 C 89 % 1035,7 hPa 0,0 l/m 0 min 0 min 0 W/m 3,2 km/h (1 Bft) 93,62 %
22.02.2019 21:32 7,3 C 6,1 C 5,0 C 89 % 1035,6 hPa 0,0 l/m 0 min 0 min 0 W/m 6,4 km/h (2 Bft) 95,74 %
22.02.2019 21:34 7,3 C 6,1 C 5,0 C 89 % 1035,6 hPa 0,0 l/m 0 min 0 min 0 W/m 6,4 km/h (2 Bft) 95,74 %
22.02.2019 21:36 7,3 C 6,1 C 5,0 C 90 % 1035,6 hPa 0,0 l/m 0 min 0 min 0 W/m 3,2 km/h (1 Bft) 93,62 %
22.02.2019 21:38 7,3 C 6,1 C 5,0 C 90 % 1035,6 hPa 0,0 l/m 0 min 0 min 0 W/m 3,2 km/h (1 Bft) 93,48 %
22.02.2019 21:40 7,3 C 6,1 C 5,0 C 90 % 1035,6 hPa 0,0 l/m 0 min 0 min 0 W/m 3,2 km/h (1 Bft) 93,62 %
22.02.2019 21:42 7,3 C 6,1 C 5,0 C 90 % 1035,6 hPa 0,0 l/m 0 min 0 min 0 W/m 3,2 km/h (1 Bft) 93,62 %
22.02.2019 21:44 7,3 C 6,1 C 5,0 C 90 % 1035,6 hPa 0,0 l/m 0 min 0 min 0 W/m 3,2 km/h (1 Bft) 91,49 %
22.02.2019 21:46 7,3 C 6,1 C 5,0 C 90 % 1035,6 hPa 0,0 l/m 0 min 0 min 0 W/m 6,4 km/h (2 Bft) 89,36 %
22.02.2019 21:48 7,3 C 6,1 C 5,0 C 90 % 1035,7 hPa 0,0 l/m 0 min 0 min 0 W/m 6,4 km/h (2 Bft) 91,49 %
22.02.2019 21:50 7,2 C 6,1 C 5,0 C 90 % 1035,7 hPa 0,0 l/m 0 min 0 min 0 W/m 6,4 km/h (2 Bft) 91,30 %
22.02.2019 21:52 7,2 C 6,1 C 5,0 C 90 % 1035,7 hPa 0,0 l/m 0 min 0 min 0 W/m 3,2 km/h (1 Bft) 93,62 %
22.02.2019 21:54 7,2 C 6,1 C 5,0 C 90 % 1035,7 hPa 0,0 l/m 0 min 0 min 0 W/m 3,2 km/h (1 Bft) 91,49 %
22.02.2019 21:56 7,2 C 6,1 C 5,0 C 91 % 1035,7 hPa 0,0 l/m 0 min 0 min 0 W/m 3,2 km/h (1 Bft) 89,36 %
22.02.2019 21:58 7,2 C 6,1 C 5,0 C 91 % 1035,8 hPa 0,0 l/m 0 min 0 min 0 W/m 6,4 km/h (2 Bft) 93,62 %
22.02.2019 22:00 7,2 C 6,1 C 5,0 C 91 % 1035,7 hPa 0,0 l/m 0 min 0 min 0 W/m 3,2 km/h (1 Bft) 82,98 %
22.02.2019 22:02 7,2 C 6,1 C 5,0 C 91 % 1035,7 hPa 0,0 l/m 0 min 0 min 0 W/m 3,2 km/h (1 Bft) 95,65 %
22.02.2019 22:04 7,2 C 6,1 C 5,6 C 91 % 1035,7 hPa 0,0 l/m 0 min 0 min 0 W/m 6,4 km/h (2 Bft) 93,62 %
22.02.2019 22:06 7,2 C 6,1 C 5,0 C 91 % 1035,8 hPa 0,0 l/m 0 min 0 min 0 W/m 3,2 km/h (1 Bft) 95,74 %
22.02.2019 22:08 7,2 C 6,1 C 5,0 C 91 % 1035,7 hPa 0,0 l/m 0 min 0 min 0 W/m 3,2 km/h (1 Bft) 93,62 %
22.02.2019 22:10 7,1 C 6,1 C 5,0 C 91 % 1035,7 hPa 0,0 l/m 0 min 0 min 0 W/m 3,2 km/h (1 Bft) 97,87 %
22.02.2019 22:12 7,1 C 6,1 C 5,0 C 91 % 1035,8 hPa 0,0 l/m 0 min 0 min 0 W/m 3,2 km/h (1 Bft) 91,49 %
22.02.2019 22:14 7,1 C 6,1 C 5,0 C 91 % 1035,7 hPa 0,0 l/m 0 min 0 min 0 W/m 0,0 km/h (0 Bft) 93,48 %
22.02.2019 22:16 7,1 C 6,1 C 5,0 C 91 % 1035,8 hPa 0,0 l/m 0 min 0 min 0 W/m 6,4 km/h (2 Bft) 97,87 %
22.02.2019 22:18 7,1 C 6,1 C 5,0 C 92 % 1035,8 hPa 0,0 l/m 0 min 0 min 0 W/m 6,4 km/h (2 Bft) 97,87 %
22.02.2019 22:20 7,1 C 6,1 C 5,0 C 92 % 1035,9 hPa 0,0 l/m 0 min 0 min 0 W/m 0,0 km/h (0 Bft) 100,00 %
22.02.2019 22:22 7,1 C 6,1 C 5,0 C 92 % 1035,9 hPa 0,0 l/m 0 min 0 min 0 W/m 3,2 km/h (1 Bft) 100,00 %
22.02.2019 22:24 7,1 C 6,1 C 5,0 C 92 % 1035,9 hPa 0,0 l/m 0 min 0 min 0 W/m 3,2 km/h (1 Bft) 100,00 %
22.02.2019 22:26 7,1 C 6,1 C 5,0 C 92 % 1035,8 hPa 0,0 l/m 0 min 0 min 0 W/m 3,2 km/h (1 Bft) 100,00 %
22.02.2019 22:28 7,1 C 6,1 C 5,0 C 92 % 1035,8 hPa 0,0 l/m 0 min 0 min 0 W/m 3,2 km/h (1 Bft) 97,87 %
22.02.2019 22:30 7,1 C 6,1 C 5,0 C 92 % 1035,9 hPa 0,0 l/m 0 min 0 min 0 W/m 3,2 km/h (1 Bft) 100,00 %
22.02.2019 22:32 7,1 C 6,1 C 5,0 C 92 % 1035,9 hPa 0,0 l/m 0 min 0 min 0 W/m 0,0 km/h (0 Bft) 100,00 %
22.02.2019 22:34 7,1 C 6,1 C 5,0 C 92 % 1035,9 hPa 0,0 l/m 0 min 0 min 0 W/m 3,2 km/h (1 Bft) 100,00 %
22.02.2019 22:36 7,1 C 6,1 C 5,0 C 92 % 1035,9 hPa 0,0 l/m 0 min 0 min 0 W/m 3,2 km/h (1 Bft) 100,00 %
22.02.2019 22:38 7,1 C 6,1 C 5,0 C 92 % 1035,9 hPa 0,0 l/m 0 min 0 min 0 W/m 3,2 km/h (1 Bft) 97,83 %
22.02.2019 22:40 7,1 C 6,1 C 5,0 C 92 % 1035,9 hPa 0,0 l/m 0 min 0 min 0 W/m 3,2 km/h (1 Bft) 100,00 %
22.02.2019 22:42 7,0 C 5,6 C 5,0 C 92 % 1035,9 hPa 0,0 l/m 0 min 0 min 0 W/m 6,4 km/h (2 Bft) 100,00 %
22.02.2019 22:44 7,0 C 5,6 C 5,0 C 92 % 1035,9 hPa 0,0 l/m 0 min 0 min 0 W/m 3,2 km/h (1 Bft) 100,00 %
22.02.2019 22:46 7,0 C 5,6 C 5,0 C 93 % 1035,9 hPa 0,0 l/m 0 min 0 min 0 W/m 0,0 km/h (0 Bft) 100,00 %
22.02.2019 22:48 6,9 C 5,6 C 4,4 C 93 % 1035,9 hPa 0,0 l/m 0 min 0 min 0 W/m 3,2 km/h (1 Bft) 100,00 %
22.02.2019 22:50 6,9 C 5,6 C 4,4 C 93 % 1035,8 hPa 0,0 l/m 0 min 0 min 0 W/m 3,2 km/h (1 Bft) 100,00 %
22.02.2019 22:52 6,9 C 5,6 C 4,4 C 93 % 1035,9 hPa 0,0 l/m 0 min 0 min 0 W/m 0,0 km/h (0 Bft) 100,00 %
22.02.2019 22:54 6,9 C 5,6 C 4,4 C 93 % 1035,9 hPa 0,0 l/m 0 min 0 min 0 W/m 3,2 km/h (1 Bft) 100,00 %
22.02.2019 22:56 6,9 C 5,0 C 4,4 C 92 % 1035,9 hPa 0,0 l/m 0 min 0 min 0 W/m 3,2 km/h (1 Bft) 100,00 %
22.02.2019 22:58 6,9 C 5,0 C 4,4 C 92 % 1035,9 hPa 0,0 l/m 0 min 0 min 0 W/m 3,2 km/h (1 Bft) 100,00 %
22.02.2019 23:00 6,8 C 5,0 C 4,4 C 92 % 1035,8 hPa 0,0 l/m 0 min 0 min 0 W/m 6,4 km/h (2 Bft) 100,00 %
22.02.2019 23:02 6,8 C 5,0 C 4,4 C 92 % 1035,9 hPa 0,0 l/m 0 min 0 min 0 W/m 6,4 km/h (2 Bft) 100,00 %
22.02.2019 23:04 6,8 C 5,0 C 4,4 C 92 % 1035,9 hPa 0,0 l/m 0 min 0 min 0 W/m 6,4 km/h (2 Bft) 100,00 %
22.02.2019 23:06 6,8 C 5,6 C 4,4 C 93 % 1036,0 hPa 0,0 l/m 0 min 0 min 0 W/m 3,2 km/h (1 Bft) 97,87 %
22.02.2019 23:08 6,7 C 5,6 C 4,4 C 93 % 1036,0 hPa 0,0 l/m 0 min 0 min 0 W/m 3,2 km/h (1 Bft) 100,00 %
22.02.2019 23:10 6,7 C 5,6 C 4,4 C 93 % 1036,0 hPa 0,0 l/m 0 min 0 min 0 W/m 3,2 km/h (1 Bft) 100,00 %
22.02.2019 23:12 6,7 C 5,6 C 4,4 C 93 % 1036,1 hPa 0,0 l/m 0 min 0 min 0 W/m 0,0 km/h (0 Bft) 100,00 %
22.02.2019 23:14 6,7 C 5,6 C 4,4 C 93 % 1036,0 hPa 0,0 l/m 0 min 0 min 0 W/m 0,0 km/h (0 Bft) 100,00 %
22.02.2019 23:16 6,7 C 5,6 C 4,4 C 93 % 1036,0 hPa 0,0 l/m 0 min 0 min 0 W/m 3,2 km/h (1 Bft) 100,00 %
22.02.2019 23:18 6,6 C 5,6 C 4,4 C 93 % 1036,0 hPa 0,0 l/m 0 min 0 min 0 W/m 0,0 km/h (0 Bft) 97,87 %
22.02.2019 23:20 6,6 C 5,6 C 4,4 C 93 % 1036,0 hPa 0,0 l/m 0 min 0 min 0 W/m 3,2 km/h (1 Bft) 100,00 %
22.02.2019 23:22 6,6 C 5,6 C 4,4 C 93 % 1036,0 hPa 0,0 l/m 0 min 0 min 0 W/m 0,0 km/h (0 Bft) 100,00 %
22.02.2019 23:24 6,6 C 5,6 C 4,4 C 93 % 1036,0 hPa 0,0 l/m 0 min 0 min 0 W/m 0,0 km/h (0 Bft) 100,00 %
22.02.2019 23:26 6,6 C 5,0 C 4,4 C 93 % 1036,1 hPa 0,0 l/m 0 min 0 min 0 W/m 0,0 km/h (0 Bft) 100,00 %
22.02.2019 23:28 6,6 C 5,0 C 3,9 C 93 % 1036,1 hPa 0,0 l/m 0 min 0 min 0 W/m 0,0 km/h (0 Bft) 100,00 %
22.02.2019 23:30 6,5 C 5,0 C 3,9 C 93 % 1036,1 hPa 0,0 l/m 0 min 0 min 0 W/m 0,0 km/h (0 Bft) 100,00 %
22.02.2019 23:32 6,5 C 5,0 C 3,9 C 93 % 1036,1 hPa 0,0 l/m 0 min 0 min 0 W/m 9,7 km/h (2 Bft) 100,00 %
22.02.2019 23:34 6,4 C 5,0 C 3,9 C 93 % 1036,1 hPa 0,0 l/m 0 min 0 min 0 W/m 3,2 km/h (1 Bft) 100,00 %
22.02.2019 23:36 6,4 C 5,0 C 3,9 C 93 % 1036,1 hPa 0,0 l/m 0 min 0 min 0 W/m 3,2 km/h (1 Bft) 97,87 %
22.02.2019 23:38 6,4 C 5,0 C 3,9 C 93 % 1036,1 hPa 0,0 l/m 0 min 0 min 0 W/m 3,2 km/h (1 Bft) 100,00 %
22.02.2019 23:40 6,4 C 5,0 C 3,9 C 93 % 1036,0 hPa 0,0 l/m 0 min 0 min 0 W/m 3,2 km/h (1 Bft) 100,00 %
22.02.2019 23:42 6,4 C 5,0 C 3,9 C 93 % 1036,1 hPa 0,0 l/m 0 min 0 min 0 W/m 0,0 km/h (0 Bft) 100,00 %
22.02.2019 23:44 6,4 C 5,0 C 4,4 C 93 % 1036,1 hPa 0,0 l/m 0 min 0 min 0 W/m 0,0 km/h (0 Bft) 100,00 %
22.02.2019 23:46 6,4 C 5,0 C 4,4 C 93 % 1036,1 hPa 0,0 l/m 0 min 0 min 0 W/m 0,0 km/h (0 Bft) 97,83 %
22.02.2019 23:48 6,4 C 5,0 C 4,4 C 93 % 1036,1 hPa 0,0 l/m 0 min 0 min 0 W/m 3,2 km/h (1 Bft) 100,00 %
22.02.2019 23:50 6,4 C 5,0 C 4,4 C 93 % 1036,1 hPa 0,0 l/m 0 min 0 min 0 W/m 3,2 km/h (1 Bft) 100,00 %
22.02.2019 23:52 6,4 C 5,0 C 4,4 C 93 % 1036,0 hPa 0,0 l/m 0 min 0 min 0 W/m 3,2 km/h (1 Bft) 95,74 %
22.02.2019 23:54 6,3 C 5,0 C 4,4 C 93 % 1036,0 hPa 0,0 l/m 0 min 0 min 0 W/m 0,0 km/h (0 Bft) 95,74 %
22.02.2019 23:56 6,3 C 5,0 C 4,4 C 93 % 1036,0 hPa 0,0 l/m 0 min 0 min 0 W/m 0,0 km/h (0 Bft) 93,62 %
22.02.2019 23:58 6,3 C 5,0 C 3,9 C 93 % 1036,0 hPa 0,0 l/m 0 min 0 min 0 W/m 0,0 km/h (0 Bft) 95,65 %
_ Min-Zeit 23:54 22:56 23:28 16:18 00:00 - - - - 00:00 18:16
Minimum _ 6,3 C 5,0 C 3,9 C 77 % 1028,6 hPa - - - - 0,0 km/h (0 Bft) 76,60 %
_ Max-Zeit 15:42 14:40 13:32 09:40 23:12 01:14 13:30 00:26 15:06 15:10 00:38
Maximum _ 13,4 C 20,0 C 12,8 C 99 % 1036,1 hPa 0,2 l/m 2 min 2 min 465 W/m 19,3 km/h
SO (3 Bft)
100,00 %
Durchschnitt _ 9,4 C 8,9 C 7,9 C 93 % 1033,0 hPa #1,2 l/m #1:22 h #22 min. 116 W/m 3,6 km/h (1 Bft) 97,07 %
© 2019 W. Hausmann